<?xml version="1.0" encoding="UTF-8" standalone="no" ?>
<gpx xmlns="http://www.topografix.com/GPX/1/1" xmlns:xsi="http://www.w3.org/2001/XMLSchema-instance" xsi:schemaLocation="http://www.topografix.com/GPX/1/1 http://www.topografix.com/GPX/1/1/gpx.xsd" version="1.1" creator="VisuGPX - https://www.visugpx.com">
  <metadata>
    <name>MARCHE Regimentaire</name>
    <desc><![CDATA[[url][/url]]]></desc>
  </metadata>
  <trk>
    <name><![CDATA[MARCHE Regimentaire]]></name>
    <trkseg>
      <trkpt lat="43.42126" lon="6.56891">
        <ele>146.8429107666</ele>
        <time>2021-01-11T18:12:07.000Z</time>
      </trkpt>
      <trkpt lat="43.42153" lon="6.56896">
        <ele>148.84657287598</ele>
        <time>2021-01-11T18:12:07.036Z</time>
      </trkpt>
      <trkpt lat="43.42154" lon="6.56923">
        <ele>148.98059082031</ele>
        <time>2021-01-11T18:12:07.099Z</time>
      </trkpt>
      <trkpt lat="43.42158" lon="6.5696">
        <ele>149.26853942871</ele>
        <time>2021-01-11T18:12:07.198Z</time>
      </trkpt>
      <trkpt lat="43.42161" lon="6.56971">
        <ele>149.4845123291</ele>
        <time>2021-01-11T18:12:07.308Z</time>
      </trkpt>
      <trkpt lat="43.42176" lon="6.56977">
        <ele>150.56433105469</ele>
        <time>2021-01-11T18:12:07.439Z</time>
      </trkpt>
      <trkpt lat="43.422" lon="6.5699">
        <ele>151.56225585938</ele>
        <time>2021-01-11T18:12:07.605Z</time>
      </trkpt>
      <trkpt lat="43.42228" lon="6.5701">
        <ele>152.71406555176</ele>
        <time>2021-01-11T18:12:07.813Z</time>
      </trkpt>
      <trkpt lat="43.42254" lon="6.57038">
        <ele>154.00984191895</ele>
        <time>2021-01-11T18:12:08.065Z</time>
      </trkpt>
      <trkpt lat="43.42265" lon="6.57052">
        <ele>154.60974121094</ele>
        <time>2021-01-11T18:12:08.337Z</time>
      </trkpt>
      <trkpt lat="43.42288" lon="6.571">
        <ele>155.42793273926</ele>
        <time>2021-01-11T18:12:08.665Z</time>
      </trkpt>
      <trkpt lat="43.42305" lon="6.5712">
        <ele>155.79986572266</ele>
        <time>2021-01-11T18:12:09.022Z</time>
      </trkpt>
      <trkpt lat="43.4232" lon="6.57144">
        <ele>156.05181884766</ele>
        <time>2021-01-11T18:12:09.410Z</time>
      </trkpt>
      <trkpt lat="43.42341" lon="6.5719">
        <ele>157.65194702148</ele>
        <time>2021-01-11T18:12:09.851Z</time>
      </trkpt>
      <trkpt lat="43.42347" lon="6.57214">
        <ele>158.44381713867</ele>
        <time>2021-01-11T18:12:10.317Z</time>
      </trkpt>
      <trkpt lat="43.42348" lon="6.5725">
        <ele>159.51997375488</ele>
        <time>2021-01-11T18:12:10.818Z</time>
      </trkpt>
      <trkpt lat="43.42336" lon="6.57305">
        <ele>160.92373657227</ele>
        <time>2021-01-11T18:12:11.374Z</time>
      </trkpt>
      <trkpt lat="43.42332" lon="6.57337">
        <ele>161.5099029541</ele>
        <time>2021-01-11T18:12:11.962Z</time>
      </trkpt>
      <trkpt lat="43.42331" lon="6.57386">
        <ele>163.80743408203</ele>
        <time>2021-01-11T18:12:12.598Z</time>
      </trkpt>
      <trkpt lat="43.42336" lon="6.57423">
        <ele>166.90884399414</ele>
        <time>2021-01-11T18:12:13.270Z</time>
      </trkpt>
      <trkpt lat="43.42338" lon="6.57441">
        <ele>168.56457519531</ele>
        <time>2021-01-11T18:12:13.960Z</time>
      </trkpt>
      <trkpt lat="43.42335" lon="6.5746">
        <ele>169.9443359375</ele>
        <time>2021-01-11T18:12:14.669Z</time>
      </trkpt>
      <trkpt lat="43.42335" lon="6.57481">
        <ele>171.82978820801</ele>
        <time>2021-01-11T18:12:15.398Z</time>
      </trkpt>
      <trkpt lat="43.42337" lon="6.57496">
        <ele>172.70565795898</ele>
        <time>2021-01-11T18:12:16.142Z</time>
      </trkpt>
      <trkpt lat="43.42347" lon="6.5752">
        <ele>174.16940307617</ele>
        <time>2021-01-11T18:12:16.913Z</time>
      </trkpt>
      <trkpt lat="43.42352" lon="6.57525">
        <ele>174.68836975098</ele>
        <time>2021-01-11T18:12:17.692Z</time>
      </trkpt>
      <trkpt lat="43.42362" lon="6.57528">
        <ele>175.51622009277</ele>
        <time>2021-01-11T18:12:18.485Z</time>
      </trkpt>
      <trkpt lat="43.42366" lon="6.57536">
        <ele>176.06285095215</ele>
        <time>2021-01-11T18:12:19.287Z</time>
      </trkpt>
      <trkpt lat="43.42367" lon="6.57538">
        <ele>176.23611450195</ele>
        <time>2021-01-11T18:12:20.091Z</time>
      </trkpt>
      <trkpt lat="43.4237" lon="6.57562">
        <ele>177.31593322754</ele>
        <time>2021-01-11T18:12:20.919Z</time>
      </trkpt>
      <trkpt lat="43.42369" lon="6.57634">
        <ele>181.9700012207</ele>
        <time>2021-01-11T18:12:21.817Z</time>
      </trkpt>
      <trkpt lat="43.4239" lon="6.57705">
        <ele>188.34094238281</ele>
        <time>2021-01-11T18:12:22.790Z</time>
      </trkpt>
      <trkpt lat="43.42395" lon="6.57715">
        <ele>189.3607635498</ele>
        <time>2021-01-11T18:12:23.774Z</time>
      </trkpt>
      <trkpt lat="43.42398" lon="6.57731">
        <ele>190.69255065918</ele>
        <time>2021-01-11T18:12:24.774Z</time>
      </trkpt>
      <trkpt lat="43.42398" lon="6.57753">
        <ele>192.27627563477</ele>
        <time>2021-01-11T18:12:25.796Z</time>
      </trkpt>
      <trkpt lat="43.42396" lon="6.57782">
        <ele>194.24520874023</ele>
        <time>2021-01-11T18:12:26.846Z</time>
      </trkpt>
      <trkpt lat="43.42389" lon="6.57802">
        <ele>195.58898925781</ele>
        <time>2021-01-11T18:12:27.918Z</time>
      </trkpt>
      <trkpt lat="43.42377" lon="6.57823">
        <ele>196.7166595459</ele>
        <time>2021-01-11T18:12:29.016Z</time>
      </trkpt>
      <trkpt lat="43.42372" lon="6.5785">
        <ele>198.73559570312</ele>
        <time>2021-01-11T18:12:30.141Z</time>
      </trkpt>
      <trkpt lat="43.42371" lon="6.57881">
        <ele>202.07102966309</ele>
        <time>2021-01-11T18:12:31.296Z</time>
      </trkpt>
      <trkpt lat="43.42374" lon="6.57895">
        <ele>203.61877441406</ele>
        <time>2021-01-11T18:12:32.465Z</time>
      </trkpt>
      <trkpt lat="43.42382" lon="6.57912">
        <ele>204.78280639648</ele>
        <time>2021-01-11T18:12:33.654Z</time>
      </trkpt>
      <trkpt lat="43.42385" lon="6.57916">
        <ele>204.96276855469</ele>
        <time>2021-01-11T18:12:34.848Z</time>
      </trkpt>
      <trkpt lat="43.42386" lon="6.57922">
        <ele>205.19073486328</ele>
        <time>2021-01-11T18:12:36.048Z</time>
      </trkpt>
      <trkpt lat="43.42384" lon="6.57934">
        <ele>205.59866333008</ele>
        <time>2021-01-11T18:12:37.260Z</time>
      </trkpt>
      <trkpt lat="43.42379" lon="6.57949">
        <ele>206.70524597168</ele>
        <time>2021-01-11T18:12:38.488Z</time>
      </trkpt>
      <trkpt lat="43.42376" lon="6.57951">
        <ele>206.92120361328</ele>
        <time>2021-01-11T18:12:39.721Z</time>
      </trkpt>
      <trkpt lat="43.42368" lon="6.57955">
        <ele>207.40112304688</ele>
        <time>2021-01-11T18:12:40.965Z</time>
      </trkpt>
      <trkpt lat="43.42357" lon="6.57963">
        <ele>208.24098205566</ele>
        <time>2021-01-11T18:12:42.226Z</time>
      </trkpt>
      <trkpt lat="43.42352" lon="6.57972">
        <ele>209.00886535645</ele>
        <time>2021-01-11T18:12:43.498Z</time>
      </trkpt>
      <trkpt lat="43.42349" lon="6.57985">
        <ele>209.98551940918</ele>
        <time>2021-01-11T18:12:44.783Z</time>
      </trkpt>
      <trkpt lat="43.42339" lon="6.58028">
        <ele>210.84448242188</ele>
        <time>2021-01-11T18:12:46.112Z</time>
      </trkpt>
      <trkpt lat="43.42336" lon="6.58052">
        <ele>211.74433898926</ele>
        <time>2021-01-11T18:12:47.464Z</time>
      </trkpt>
      <trkpt lat="43.42338" lon="6.58077">
        <ele>213.19589233398</ele>
        <time>2021-01-11T18:12:48.841Z</time>
      </trkpt>
      <trkpt lat="43.42346" lon="6.58126">
        <ele>218.54699707031</ele>
        <time>2021-01-11T18:12:50.267Z</time>
      </trkpt>
      <trkpt lat="43.4234" lon="6.58152">
        <ele>219.44082641602</ele>
        <time>2021-01-11T18:12:51.719Z</time>
      </trkpt>
      <trkpt lat="43.42321" lon="6.582">
        <ele>217.17320251465</ele>
        <time>2021-01-11T18:12:53.224Z</time>
      </trkpt>
      <trkpt lat="43.42318" lon="6.5824">
        <ele>220.60758972168</ele>
        <time>2021-01-11T18:12:54.768Z</time>
      </trkpt>
      <trkpt lat="43.42315" lon="6.58264">
        <ele>221.21948242188</ele>
        <time>2021-01-11T18:12:56.336Z</time>
      </trkpt>
      <trkpt lat="43.42308" lon="6.58284">
        <ele>222.1522064209</ele>
        <time>2021-01-11T18:12:57.925Z</time>
      </trkpt>
      <trkpt lat="43.42307" lon="6.58314">
        <ele>226.86741638184</ele>
        <time>2021-01-11T18:12:59.544Z</time>
      </trkpt>
      <trkpt lat="43.42293" lon="6.58383">
        <ele>235.03645324707</ele>
        <time>2021-01-11T18:13:01.232Z</time>
      </trkpt>
      <trkpt lat="43.42287" lon="6.58414">
        <ele>239.01208496094</ele>
        <time>2021-01-11T18:13:02.951Z</time>
      </trkpt>
      <trkpt lat="43.42285" lon="6.58456">
        <ele>241.68739318848</ele>
        <time>2021-01-11T18:13:04.711Z</time>
      </trkpt>
      <trkpt lat="43.42283" lon="6.58469">
        <ele>242.73121643066</ele>
        <time>2021-01-11T18:13:06.484Z</time>
      </trkpt>
      <trkpt lat="43.42279" lon="6.58479">
        <ele>243.85903930664</ele>
        <time>2021-01-11T18:13:08.268Z</time>
      </trkpt>
      <trkpt lat="43.42266" lon="6.58496">
        <ele>245.94233703613</ele>
        <time>2021-01-11T18:13:10.076Z</time>
      </trkpt>
      <trkpt lat="43.42256" lon="6.58511">
        <ele>246.67663574219</ele>
        <time>2021-01-11T18:13:11.904Z</time>
      </trkpt>
      <trkpt lat="43.42252" lon="6.58523">
        <ele>246.96458435059</ele>
        <time>2021-01-11T18:13:13.745Z</time>
      </trkpt>
      <trkpt lat="43.42257" lon="6.58548">
        <ele>246.60464477539</ele>
        <time>2021-01-11T18:13:15.611Z</time>
      </trkpt>
      <trkpt lat="43.42283" lon="6.58581">
        <ele>243.84678649902</ele>
        <time>2021-01-11T18:13:17.524Z</time>
      </trkpt>
      <trkpt lat="43.42292" lon="6.58592">
        <ele>242.58700561523</ele>
        <time>2021-01-11T18:13:19.453Z</time>
      </trkpt>
      <trkpt lat="43.42296" lon="6.58607">
        <ele>241.66316223145</ele>
        <time>2021-01-11T18:13:21.398Z</time>
      </trkpt>
      <trkpt lat="43.42298" lon="6.58627">
        <ele>240.75131225586</ele>
        <time>2021-01-11T18:13:23.362Z</time>
      </trkpt>
      <trkpt lat="43.42301" lon="6.58653">
        <ele>239.54597473145</ele>
        <time>2021-01-11T18:13:25.352Z</time>
      </trkpt>
      <trkpt lat="43.42309" lon="6.58671">
        <ele>238.34617614746</ele>
        <time>2021-01-11T18:13:27.363Z</time>
      </trkpt>
      <trkpt lat="43.42317" lon="6.58697">
        <ele>236.95440673828</ele>
        <time>2021-01-11T18:13:29.401Z</time>
      </trkpt>
      <trkpt lat="43.42323" lon="6.58722">
        <ele>235.3129119873</ele>
        <time>2021-01-11T18:13:31.465Z</time>
      </trkpt>
      <trkpt lat="43.42329" lon="6.5877">
        <ele>232.4956817627</ele>
        <time>2021-01-11T18:13:33.576Z</time>
      </trkpt>
      <trkpt lat="43.42333" lon="6.5881">
        <ele>230.15390014648</ele>
        <time>2021-01-11T18:13:35.726Z</time>
      </trkpt>
      <trkpt lat="43.42332" lon="6.58837">
        <ele>228.69839477539</ele>
        <time>2021-01-11T18:13:37.902Z</time>
      </trkpt>
      <trkpt lat="43.42326" lon="6.58863">
        <ele>227.6665802002</ele>
        <time>2021-01-11T18:13:40.105Z</time>
      </trkpt>
      <trkpt lat="43.42336" lon="6.58929">
        <ele>224.13916015625</ele>
        <time>2021-01-11T18:13:42.373Z</time>
      </trkpt>
      <trkpt lat="43.42336" lon="6.58945">
        <ele>223.37129211426</ele>
        <time>2021-01-11T18:13:44.657Z</time>
      </trkpt>
      <trkpt lat="43.42361" lon="6.58978">
        <ele>221.18174743652</ele>
        <time>2021-01-11T18:13:46.987Z</time>
      </trkpt>
      <trkpt lat="43.42398" lon="6.59018">
        <ele>221.2045135498</ele>
        <time>2021-01-11T18:13:49.380Z</time>
      </trkpt>
      <trkpt lat="43.42418" lon="6.59033">
        <ele>221.3244934082</ele>
        <time>2021-01-11T18:13:51.803Z</time>
      </trkpt>
      <trkpt lat="43.42438" lon="6.59048">
        <ele>221.4444732666</ele>
        <time>2021-01-11T18:13:54.257Z</time>
      </trkpt>
      <trkpt lat="43.42458" lon="6.59057">
        <ele>221.4204864502</ele>
        <time>2021-01-11T18:13:56.739Z</time>
      </trkpt>
      <trkpt lat="43.42478" lon="6.59072">
        <ele>221.12985229492</ele>
        <time>2021-01-11T18:13:59.251Z</time>
      </trkpt>
      <trkpt lat="43.4249" lon="6.59083">
        <ele>220.06204223633</ele>
        <time>2021-01-11T18:14:01.782Z</time>
      </trkpt>
      <trkpt lat="43.4252" lon="6.59105">
        <ele>218.18260192871</ele>
        <time>2021-01-11T18:14:04.359Z</time>
      </trkpt>
      <trkpt lat="43.42538" lon="6.59116">
        <ele>218.33857727051</ele>
        <time>2021-01-11T18:14:06.962Z</time>
      </trkpt>
      <trkpt lat="43.4259" lon="6.59146">
        <ele>218.9384765625</ele>
        <time>2021-01-11T18:14:09.640Z</time>
      </trkpt>
      <trkpt lat="43.42612" lon="6.59163">
        <ele>219.47555541992</ele>
        <time>2021-01-11T18:14:12.352Z</time>
      </trkpt>
      <trkpt lat="43.4262" lon="6.59173">
        <ele>219.7518157959</ele>
        <time>2021-01-11T18:14:15.078Z</time>
      </trkpt>
      <trkpt lat="43.42634" lon="6.59188">
        <ele>220.20774841309</ele>
        <time>2021-01-11T18:14:17.828Z</time>
      </trkpt>
      <trkpt lat="43.42655" lon="6.59226">
        <ele>220.14775085449</ele>
        <time>2021-01-11T18:14:20.624Z</time>
      </trkpt>
      <trkpt lat="43.42673" lon="6.59253">
        <ele>219.92919921875</ele>
        <time>2021-01-11T18:14:23.456Z</time>
      </trkpt>
      <trkpt lat="43.42702" lon="6.59298">
        <ele>218.41032409668</ele>
        <time>2021-01-11T18:14:26.346Z</time>
      </trkpt>
      <trkpt lat="43.42712" lon="6.59319">
        <ele>217.35110473633</ele>
        <time>2021-01-11T18:14:29.261Z</time>
      </trkpt>
      <trkpt lat="43.4272" lon="6.59341">
        <ele>215.35943603516</ele>
        <time>2021-01-11T18:14:32.200Z</time>
      </trkpt>
      <trkpt lat="43.42727" lon="6.59352">
        <ele>214.50758361816</ele>
        <time>2021-01-11T18:14:35.153Z</time>
      </trkpt>
      <trkpt lat="43.42749" lon="6.5937">
        <ele>213.61973571777</ele>
        <time>2021-01-11T18:14:38.140Z</time>
      </trkpt>
      <trkpt lat="43.42766" lon="6.59378">
        <ele>213.55932617188</ele>
        <time>2021-01-11T18:14:41.151Z</time>
      </trkpt>
      <trkpt lat="43.42788" lon="6.59387">
        <ele>213.11540222168</ele>
        <time>2021-01-11T18:14:44.192Z</time>
      </trkpt>
      <trkpt lat="43.42801" lon="6.594">
        <ele>212.0235748291</ele>
        <time>2021-01-11T18:14:47.255Z</time>
      </trkpt>
      <trkpt lat="43.42809" lon="6.59418">
        <ele>211.45346069336</ele>
        <time>2021-01-11T18:14:50.338Z</time>
      </trkpt>
      <trkpt lat="43.42819" lon="6.5939">
        <ele>213.53532409668</ele>
        <time>2021-01-11T18:14:53.452Z</time>
      </trkpt>
      <trkpt lat="43.42832" lon="6.59385">
        <ele>214.38719177246</ele>
        <time>2021-01-11T18:14:56.584Z</time>
      </trkpt>
      <trkpt lat="43.4284" lon="6.59388">
        <ele>214.14106750488</ele>
        <time>2021-01-11T18:14:59.727Z</time>
      </trkpt>
      <trkpt lat="43.42849" lon="6.59393">
        <ele>213.68437194824</ele>
        <time>2021-01-11T18:15:02.883Z</time>
      </trkpt>
      <trkpt lat="43.42888" lon="6.59429">
        <ele>205.19845581055</ele>
        <time>2021-01-11T18:15:06.101Z</time>
      </trkpt>
      <trkpt lat="43.42899" lon="6.59441">
        <ele>203.11080932617</ele>
        <time>2021-01-11T18:15:09.338Z</time>
      </trkpt>
      <trkpt lat="43.4291" lon="6.59445">
        <ele>200.8311920166</ele>
        <time>2021-01-11T18:15:12.590Z</time>
      </trkpt>
      <trkpt lat="43.42914" lon="6.59443">
        <ele>199.91934204102</ele>
        <time>2021-01-11T18:15:15.848Z</time>
      </trkpt>
      <trkpt lat="43.42922" lon="6.59434">
        <ele>197.97566223145</ele>
        <time>2021-01-11T18:15:19.120Z</time>
      </trkpt>
      <trkpt lat="43.4293" lon="6.59431">
        <ele>196.17596435547</ele>
        <time>2021-01-11T18:15:22.403Z</time>
      </trkpt>
      <trkpt lat="43.42934" lon="6.59423">
        <ele>195.12013244629</ele>
        <time>2021-01-11T18:15:25.695Z</time>
      </trkpt>
      <trkpt lat="43.42938" lon="6.59413">
        <ele>194.0163269043</ele>
        <time>2021-01-11T18:15:28.998Z</time>
      </trkpt>
      <trkpt lat="43.42947" lon="6.5941">
        <ele>191.23165893555</ele>
        <time>2021-01-11T18:15:32.314Z</time>
      </trkpt>
      <trkpt lat="43.42952" lon="6.59411">
        <ele>189.69590759277</ele>
        <time>2021-01-11T18:15:35.636Z</time>
      </trkpt>
      <trkpt lat="43.42958" lon="6.59417">
        <ele>188.54409790039</ele>
        <time>2021-01-11T18:15:38.968Z</time>
      </trkpt>
      <trkpt lat="43.42967" lon="6.59425">
        <ele>186.67240905762</ele>
        <time>2021-01-11T18:15:42.315Z</time>
      </trkpt>
      <trkpt lat="43.42979" lon="6.59431">
        <ele>183.50494384766</ele>
        <time>2021-01-11T18:15:45.679Z</time>
      </trkpt>
      <trkpt lat="43.42994" lon="6.5943">
        <ele>178.32180786133</ele>
        <time>2021-01-11T18:15:49.063Z</time>
      </trkpt>
      <trkpt lat="43.43004" lon="6.59433">
        <ele>175.39430236816</ele>
        <time>2021-01-11T18:15:52.460Z</time>
      </trkpt>
      <trkpt lat="43.43019" lon="6.59439">
        <ele>171.38580322266</ele>
        <time>2021-01-11T18:15:55.878Z</time>
      </trkpt>
      <trkpt lat="43.43037" lon="6.59442">
        <ele>166.63459777832</ele>
        <time>2021-01-11T18:15:59.320Z</time>
      </trkpt>
      <trkpt lat="43.43047" lon="6.59442">
        <ele>163.75506591797</ele>
        <time>2021-01-11T18:16:02.776Z</time>
      </trkpt>
      <trkpt lat="43.43052" lon="6.5945">
        <ele>163.46711730957</ele>
        <time>2021-01-11T18:16:06.242Z</time>
      </trkpt>
      <trkpt lat="43.43055" lon="6.59453">
        <ele>163.03518676758</ele>
        <time>2021-01-11T18:16:09.713Z</time>
      </trkpt>
      <trkpt lat="43.43065" lon="6.59455">
        <ele>160.44361877441</ele>
        <time>2021-01-11T18:16:13.197Z</time>
      </trkpt>
      <trkpt lat="43.43082" lon="6.59465">
        <ele>157.20864868164</ele>
        <time>2021-01-11T18:16:16.706Z</time>
      </trkpt>
      <trkpt lat="43.43096" lon="6.59477">
        <ele>155.04899597168</ele>
        <time>2021-01-11T18:16:20.237Z</time>
      </trkpt>
      <trkpt lat="43.43105" lon="6.5948">
        <ele>153.46835327148</ele>
        <time>2021-01-11T18:16:23.780Z</time>
      </trkpt>
      <trkpt lat="43.43117" lon="6.59484">
        <ele>151.45268249512</ele>
        <time>2021-01-11T18:16:27.340Z</time>
      </trkpt>
      <trkpt lat="43.4312" lon="6.59495">
        <ele>151.06477355957</ele>
        <time>2021-01-11T18:16:30.911Z</time>
      </trkpt>
      <trkpt lat="43.43117" lon="6.5952">
        <ele>151.33096313477</ele>
        <time>2021-01-11T18:16:34.507Z</time>
      </trkpt>
      <trkpt lat="43.43118" lon="6.59533">
        <ele>150.86303710938</ele>
        <time>2021-01-11T18:16:38.115Z</time>
      </trkpt>
      <trkpt lat="43.43122" lon="6.5954">
        <ele>150.07116699219</ele>
        <time>2021-01-11T18:16:41.732Z</time>
      </trkpt>
      <trkpt lat="43.43137" lon="6.59554">
        <ele>147.45175170898</ele>
        <time>2021-01-11T18:16:45.373Z</time>
      </trkpt>
      <trkpt lat="43.43137" lon="6.59554">
        <ele>147.39561462402</ele>
        <time>2021-01-11T18:16:49.014Z</time>
      </trkpt>
      <trkpt lat="43.4316" lon="6.5958">
        <ele>142.62188720703</ele>
        <time>2021-01-11T18:16:52.695Z</time>
      </trkpt>
      <trkpt lat="43.43178" lon="6.596">
        <ele>138.37460327148</ele>
        <time>2021-01-11T18:16:56.407Z</time>
      </trkpt>
      <trkpt lat="43.43192" lon="6.59625">
        <ele>137.32518005371</ele>
        <time>2021-01-11T18:17:00.150Z</time>
      </trkpt>
      <trkpt lat="43.4319" lon="6.59634">
        <ele>136.38932800293</ele>
        <time>2021-01-11T18:17:03.902Z</time>
      </trkpt>
      <trkpt lat="43.43188" lon="6.59649">
        <ele>135.02156066895</ele>
        <time>2021-01-11T18:17:07.669Z</time>
      </trkpt>
      <trkpt lat="43.43183" lon="6.59672">
        <ele>132.13836669922</ele>
        <time>2021-01-11T18:17:11.459Z</time>
      </trkpt>
      <trkpt lat="43.43175" lon="6.59703">
        <ele>130.02182006836</ele>
        <time>2021-01-11T18:17:15.281Z</time>
      </trkpt>
      <trkpt lat="43.43172" lon="6.59745">
        <ele>125.65545654297</ele>
        <time>2021-01-11T18:17:19.144Z</time>
      </trkpt>
      <trkpt lat="43.4317" lon="6.59819">
        <ele>117.23810577393</ele>
        <time>2021-01-11T18:17:23.079Z</time>
      </trkpt>
      <trkpt lat="43.43164" lon="6.59871">
        <ele>111.6470413208</ele>
        <time>2021-01-11T18:17:27.065Z</time>
      </trkpt>
      <trkpt lat="43.43162" lon="6.59897">
        <ele>109.11663818359</ele>
        <time>2021-01-11T18:17:31.076Z</time>
      </trkpt>
      <trkpt lat="43.43165" lon="6.59911">
        <ele>107.60081481934</ele>
        <time>2021-01-11T18:17:35.101Z</time>
      </trkpt>
      <trkpt lat="43.43172" lon="6.59919">
        <ele>106.10106658936</ele>
        <time>2021-01-11T18:17:39.139Z</time>
      </trkpt>
      <trkpt lat="43.43186" lon="6.59927">
        <ele>104.94779205322</ele>
        <time>2021-01-11T18:17:43.197Z</time>
      </trkpt>
      <trkpt lat="43.43214" lon="6.59959">
        <ele>108.35522460938</ele>
        <time>2021-01-11T18:17:47.303Z</time>
      </trkpt>
      <trkpt lat="43.43215" lon="6.59965">
        <ele>108.12725830078</ele>
        <time>2021-01-11T18:17:51.415Z</time>
      </trkpt>
      <trkpt lat="43.43214" lon="6.59972">
        <ele>107.41938018799</ele>
        <time>2021-01-11T18:17:55.534Z</time>
      </trkpt>
      <trkpt lat="43.43204" lon="6.59991">
        <ele>104.72978973389</ele>
        <time>2021-01-11T18:17:59.676Z</time>
      </trkpt>
      <trkpt lat="43.43199" lon="6.59991">
        <ele>103.7099609375</ele>
        <time>2021-01-11T18:18:03.825Z</time>
      </trkpt>
      <trkpt lat="43.43186" lon="6.60004">
        <ele>100.77034759521</ele>
        <time>2021-01-11T18:18:07.995Z</time>
      </trkpt>
      <trkpt lat="43.43169" lon="6.60023">
        <ele>100.65446472168</ele>
        <time>2021-01-11T18:18:12.194Z</time>
      </trkpt>
      <trkpt lat="43.43141" lon="6.60054">
        <ele>100.37873077393</ele>
        <time>2021-01-11T18:18:16.441Z</time>
      </trkpt>
      <trkpt lat="43.43133" lon="6.60069">
        <ele>98.97711181641</ele>
        <time>2021-01-11T18:18:20.706Z</time>
      </trkpt>
      <trkpt lat="43.4313" lon="6.60091">
        <ele>98.18524932861</ele>
        <time>2021-01-11T18:18:24.993Z</time>
      </trkpt>
      <trkpt lat="43.43126" lon="6.60111">
        <ele>96.53508758545</ele>
        <time>2021-01-11T18:18:29.300Z</time>
      </trkpt>
      <trkpt lat="43.43125" lon="6.60135">
        <ele>94.17147827148</ele>
        <time>2021-01-11T18:18:33.631Z</time>
      </trkpt>
      <trkpt lat="43.43115" lon="6.60165">
        <ele>91.48924255371</ele>
        <time>2021-01-11T18:18:37.994Z</time>
      </trkpt>
      <trkpt lat="43.43111" lon="6.60196">
        <ele>88.97589874268</ele>
        <time>2021-01-11T18:18:42.387Z</time>
      </trkpt>
      <trkpt lat="43.43108" lon="6.6021">
        <ele>87.68011474609</ele>
        <time>2021-01-11T18:18:46.795Z</time>
      </trkpt>
      <trkpt lat="43.43103" lon="6.60223">
        <ele>86.26435089111</ele>
        <time>2021-01-11T18:18:51.217Z</time>
      </trkpt>
      <trkpt lat="43.43093" lon="6.60253">
        <ele>84.49118804932</ele>
        <time>2021-01-11T18:18:55.671Z</time>
      </trkpt>
      <trkpt lat="43.43088" lon="6.60296">
        <ele>82.72747802734</ele>
        <time>2021-01-11T18:19:00.167Z</time>
      </trkpt>
      <trkpt lat="43.4309" lon="6.60312">
        <ele>81.75087738037</ele>
        <time>2021-01-11T18:19:04.679Z</time>
      </trkpt>
      <trkpt lat="43.43098" lon="6.60334">
        <ele>80.08541870117</ele>
        <time>2021-01-11T18:19:09.215Z</time>
      </trkpt>
      <trkpt lat="43.43113" lon="6.60368">
        <ele>79.21144866943</ele>
        <time>2021-01-11T18:19:13.789Z</time>
      </trkpt>
      <trkpt lat="43.43116" lon="6.60384">
        <ele>78.50356292725</ele>
        <time>2021-01-11T18:19:18.380Z</time>
      </trkpt>
      <trkpt lat="43.43126" lon="6.60444">
        <ele>76.57639312744</ele>
        <time>2021-01-11T18:19:23.030Z</time>
      </trkpt>
      <trkpt lat="43.43123" lon="6.60468">
        <ele>75.13663482666</ele>
        <time>2021-01-11T18:19:27.704Z</time>
      </trkpt>
      <trkpt lat="43.43114" lon="6.60496">
        <ele>72.79822540283</ele>
        <time>2021-01-11T18:19:32.408Z</time>
      </trkpt>
      <trkpt lat="43.43101" lon="6.60523">
        <ele>70.35988616943</ele>
        <time>2021-01-11T18:19:37.143Z</time>
      </trkpt>
      <trkpt lat="43.43098" lon="6.60535">
        <ele>69.59475708008</ele>
        <time>2021-01-11T18:19:41.890Z</time>
      </trkpt>
      <trkpt lat="43.43097" lon="6.60564">
        <ele>68.1909942627</ele>
        <time>2021-01-11T18:19:46.666Z</time>
      </trkpt>
      <trkpt lat="43.43099" lon="6.60599">
        <ele>66.90800476074</ele>
        <time>2021-01-11T18:19:51.476Z</time>
      </trkpt>
      <trkpt lat="43.43103" lon="6.60613">
        <ele>66.64405059814</ele>
        <time>2021-01-11T18:19:56.300Z</time>
      </trkpt>
      <trkpt lat="43.43111" lon="6.60661">
        <ele>65.39625549316</ele>
        <time>2021-01-11T18:20:01.172Z</time>
      </trkpt>
      <trkpt lat="43.43122" lon="6.60718">
        <ele>65.5474319458</ele>
        <time>2021-01-11T18:20:06.102Z</time>
      </trkpt>
      <trkpt lat="43.43122" lon="6.6072">
        <ele>65.55499267578</ele>
        <time>2021-01-11T18:20:11.033Z</time>
      </trkpt>
      <trkpt lat="43.43122" lon="6.6072">
        <ele>65.54628753662</ele>
        <time>2021-01-11T18:20:15.965Z</time>
      </trkpt>
      <trkpt lat="43.43122" lon="6.60722">
        <ele>65.55499267578</ele>
        <time>2021-01-11T18:20:20.899Z</time>
      </trkpt>
      <trkpt lat="43.43124" lon="6.60733">
        <ele>65.60298156738</ele>
        <time>2021-01-11T18:20:25.844Z</time>
      </trkpt>
      <trkpt lat="43.43134" lon="6.6073">
        <ele>65.84294891357</ele>
        <time>2021-01-11T18:20:30.803Z</time>
      </trkpt>
      <trkpt lat="43.43142" lon="6.60729">
        <ele>66.03491210938</ele>
        <time>2021-01-11T18:20:35.772Z</time>
      </trkpt>
      <trkpt lat="43.4315" lon="6.60734">
        <ele>66.22688293457</ele>
        <time>2021-01-11T18:20:40.753Z</time>
      </trkpt>
      <trkpt lat="43.43164" lon="6.60754">
        <ele>66.33656311035</ele>
        <time>2021-01-11T18:20:45.761Z</time>
      </trkpt>
      <trkpt lat="43.4317" lon="6.60757">
        <ele>66.44454956055</ele>
        <time>2021-01-11T18:20:50.778Z</time>
      </trkpt>
      <trkpt lat="43.43173" lon="6.60756">
        <ele>66.52853393555</ele>
        <time>2021-01-11T18:20:55.799Z</time>
      </trkpt>
      <trkpt lat="43.43176" lon="6.60752">
        <ele>66.64851379395</ele>
        <time>2021-01-11T18:21:00.825Z</time>
      </trkpt>
      <trkpt lat="43.43178" lon="6.60733">
        <ele>66.89876556396</ele>
        <time>2021-01-11T18:21:05.870Z</time>
      </trkpt>
      <trkpt lat="43.43175" lon="6.60696">
        <ele>67.97583007812</ele>
        <time>2021-01-11T18:21:10.951Z</time>
      </trkpt>
      <trkpt lat="43.43175" lon="6.60684">
        <ele>68.40775299072</ele>
        <time>2021-01-11T18:21:16.044Z</time>
      </trkpt>
      <trkpt lat="43.43177" lon="6.6068">
        <ele>68.67171478271</ele>
        <time>2021-01-11T18:21:21.141Z</time>
      </trkpt>
      <trkpt lat="43.4318" lon="6.6068">
        <ele>68.85168457031</ele>
        <time>2021-01-11T18:21:26.242Z</time>
      </trkpt>
      <trkpt lat="43.43193" lon="6.60701">
        <ele>69.65180206299</ele>
        <time>2021-01-11T18:21:31.370Z</time>
      </trkpt>
      <trkpt lat="43.43196" lon="6.60703">
        <ele>69.97575378418</ele>
        <time>2021-01-11T18:21:36.503Z</time>
      </trkpt>
      <trkpt lat="43.43214" lon="6.60698">
        <ele>72.53132629395</ele>
        <time>2021-01-11T18:21:41.660Z</time>
      </trkpt>
      <trkpt lat="43.4324" lon="6.60689">
        <ele>77.27418518066</ele>
        <time>2021-01-11T18:21:46.853Z</time>
      </trkpt>
      <trkpt lat="43.43251" lon="6.60688">
        <ele>79.33784484863</ele>
        <time>2021-01-11T18:21:52.061Z</time>
      </trkpt>
      <trkpt lat="43.43258" lon="6.6069">
        <ele>80.42965698242</ele>
        <time>2021-01-11T18:21:57.278Z</time>
      </trkpt>
      <trkpt lat="43.43263" lon="6.60694">
        <ele>80.99356842041</ele>
        <time>2021-01-11T18:22:02.503Z</time>
      </trkpt>
      <trkpt lat="43.43269" lon="6.60702">
        <ele>81.48390197754</ele>
        <time>2021-01-11T18:22:07.739Z</time>
      </trkpt>
      <trkpt lat="43.43273" lon="6.6071">
        <ele>81.62787628174</ele>
        <time>2021-01-11T18:22:12.984Z</time>
      </trkpt>
      <trkpt lat="43.43277" lon="6.60732">
        <ele>80.59605407715</ele>
        <time>2021-01-11T18:22:18.251Z</time>
      </trkpt>
      <trkpt lat="43.4328" lon="6.6074">
        <ele>80.53606414795</ele>
        <time>2021-01-11T18:22:23.527Z</time>
      </trkpt>
      <trkpt lat="43.43294" lon="6.6076">
        <ele>81.71186828613</ele>
        <time>2021-01-11T18:22:28.830Z</time>
      </trkpt>
      <trkpt lat="43.43298" lon="6.60765">
        <ele>82.10780334473</ele>
        <time>2021-01-11T18:22:34.140Z</time>
      </trkpt>
      <trkpt lat="43.43307" lon="6.60773">
        <ele>83.27160644531</ele>
        <time>2021-01-11T18:22:39.465Z</time>
      </trkpt>
      <trkpt lat="43.43318" lon="6.60776">
        <ele>85.26327514648</ele>
        <time>2021-01-11T18:22:44.805Z</time>
      </trkpt>
      <trkpt lat="43.43332" lon="6.60808">
        <ele>85.27709960938</ele>
        <time>2021-01-11T18:22:50.181Z</time>
      </trkpt>
      <trkpt lat="43.43337" lon="6.60817">
        <ele>85.44506835938</ele>
        <time>2021-01-11T18:22:55.568Z</time>
      </trkpt>
      <trkpt lat="43.43346" lon="6.60823">
        <ele>86.74059295654</ele>
        <time>2021-01-11T18:23:00.968Z</time>
      </trkpt>
      <trkpt lat="43.43366" lon="6.60828">
        <ele>89.5240020752</ele>
        <time>2021-01-11T18:23:06.395Z</time>
      </trkpt>
      <trkpt lat="43.43408" lon="6.60835">
        <ele>95.23505401611</ele>
        <time>2021-01-11T18:23:11.879Z</time>
      </trkpt>
      <trkpt lat="43.43416" lon="6.60831">
        <ele>96.96276092529</ele>
        <time>2021-01-11T18:23:17.374Z</time>
      </trkpt>
      <trkpt lat="43.43432" lon="6.6082">
        <ele>100.77812957764</ele>
        <time>2021-01-11T18:23:22.893Z</time>
      </trkpt>
      <trkpt lat="43.43436" lon="6.60819">
        <ele>101.50974273682</ele>
        <time>2021-01-11T18:23:28.417Z</time>
      </trkpt>
      <trkpt lat="43.43441" lon="6.6082">
        <ele>102.14563751221</ele>
        <time>2021-01-11T18:23:33.948Z</time>
      </trkpt>
      <trkpt lat="43.43445" lon="6.60825">
        <ele>102.04965209961</ele>
        <time>2021-01-11T18:23:39.486Z</time>
      </trkpt>
      <trkpt lat="43.43448" lon="6.60846">
        <ele>99.77654266357</ele>
        <time>2021-01-11T18:23:45.045Z</time>
      </trkpt>
      <trkpt lat="43.43451" lon="6.60856">
        <ele>98.97267913818</ele>
        <time>2021-01-11T18:23:50.615Z</time>
      </trkpt>
      <trkpt lat="43.43464" lon="6.60878">
        <ele>98.048828125</ele>
        <time>2021-01-11T18:23:56.212Z</time>
      </trkpt>
      <trkpt lat="43.43473" lon="6.60887">
        <ele>98.1568145752</ele>
        <time>2021-01-11T18:24:01.824Z</time>
      </trkpt>
      <trkpt lat="43.43482" lon="6.60884">
        <ele>99.70455169678</ele>
        <time>2021-01-11T18:24:07.448Z</time>
      </trkpt>
      <trkpt lat="43.43505" lon="6.60868">
        <ele>105.21712493896</ele>
        <time>2021-01-11T18:24:13.107Z</time>
      </trkpt>
      <trkpt lat="43.43513" lon="6.60865">
        <ele>106.89685058594</ele>
        <time>2021-01-11T18:24:18.777Z</time>
      </trkpt>
      <trkpt lat="43.43525" lon="6.60865">
        <ele>108.43046569824</ele>
        <time>2021-01-11T18:24:24.463Z</time>
      </trkpt>
      <trkpt lat="43.43543" lon="6.60868">
        <ele>110.15817260742</ele>
        <time>2021-01-11T18:24:30.173Z</time>
      </trkpt>
      <trkpt lat="43.43562" lon="6.60878">
        <ele>110.99803161621</ele>
        <time>2021-01-11T18:24:35.910Z</time>
      </trkpt>
      <trkpt lat="43.4357" lon="6.60882">
        <ele>111.30369567871</ele>
        <time>2021-01-11T18:24:41.658Z</time>
      </trkpt>
      <trkpt lat="43.4357" lon="6.60882">
        <ele>111.30388641357</ele>
        <time>2021-01-11T18:24:47.406Z</time>
      </trkpt>
      <trkpt lat="43.43571" lon="6.60883">
        <ele>111.3579788208</ele>
        <time>2021-01-11T18:24:53.156Z</time>
      </trkpt>
      <trkpt lat="43.43571" lon="6.60883">
        <ele>111.36087799072</ele>
        <time>2021-01-11T18:24:58.906Z</time>
      </trkpt>
      <trkpt lat="43.43577" lon="6.60887">
        <ele>111.501953125</ele>
        <time>2021-01-11T18:25:04.665Z</time>
      </trkpt>
      <trkpt lat="43.43592" lon="6.60918">
        <ele>110.19591522217</ele>
        <time>2021-01-11T18:25:10.460Z</time>
      </trkpt>
      <trkpt lat="43.43602" lon="6.60956">
        <ele>108.78726196289</ele>
        <time>2021-01-11T18:25:16.294Z</time>
      </trkpt>
      <trkpt lat="43.43616" lon="6.61006">
        <ele>107.47779083252</ele>
        <time>2021-01-11T18:25:22.180Z</time>
      </trkpt>
      <trkpt lat="43.43639" lon="6.61063">
        <ele>107.08185577393</ele>
        <time>2021-01-11T18:25:28.130Z</time>
      </trkpt>
      <trkpt lat="43.43653" lon="6.61127">
        <ele>108.3267288208</ele>
        <time>2021-01-11T18:25:34.145Z</time>
      </trkpt>
      <trkpt lat="43.4365" lon="6.61153">
        <ele>106.69646453857</ele>
        <time>2021-01-11T18:25:40.185Z</time>
      </trkpt>
      <trkpt lat="43.43642" lon="6.61202">
        <ele>104.21656036377</ele>
        <time>2021-01-11T18:25:46.274Z</time>
      </trkpt>
      <trkpt lat="43.4364" lon="6.61221">
        <ele>104.27655029297</ele>
        <time>2021-01-11T18:25:52.382Z</time>
      </trkpt>
      <trkpt lat="43.43645" lon="6.6125">
        <ele>104.15808868408</ele>
        <time>2021-01-11T18:25:58.518Z</time>
      </trkpt>
      <trkpt lat="43.43651" lon="6.61281">
        <ele>103.1742477417</ele>
        <time>2021-01-11T18:26:04.686Z</time>
      </trkpt>
      <trkpt lat="43.43654" lon="6.61297">
        <ele>102.41611480713</ele>
        <time>2021-01-11T18:26:10.870Z</time>
      </trkpt>
      <trkpt lat="43.43652" lon="6.6131">
        <ele>101.08433532715</ele>
        <time>2021-01-11T18:26:17.067Z</time>
      </trkpt>
      <trkpt lat="43.43645" lon="6.61338">
        <ele>99.05832672119</ele>
        <time>2021-01-11T18:26:23.292Z</time>
      </trkpt>
      <trkpt lat="43.43644" lon="6.61347">
        <ele>98.7223815918</ele>
        <time>2021-01-11T18:26:29.526Z</time>
      </trkpt>
      <trkpt lat="43.43652" lon="6.61456">
        <ele>97.91011047363</ele>
        <time>2021-01-11T18:26:35.867Z</time>
      </trkpt>
      <trkpt lat="43.43657" lon="6.61477">
        <ele>98.74997711182</ele>
        <time>2021-01-11T18:26:42.229Z</time>
      </trkpt>
      <trkpt lat="43.43668" lon="6.61505">
        <ele>100.83442687988</ele>
        <time>2021-01-11T18:26:48.622Z</time>
      </trkpt>
      <trkpt lat="43.43702" lon="6.61578">
        <ele>104.94535064697</ele>
        <time>2021-01-11T18:26:55.099Z</time>
      </trkpt>
      <trkpt lat="43.43726" lon="6.61618">
        <ele>105.89242553711</ele>
        <time>2021-01-11T18:27:01.627Z</time>
      </trkpt>
      <trkpt lat="43.43743" lon="6.61633">
        <ele>106.78028106689</ele>
        <time>2021-01-11T18:27:08.181Z</time>
      </trkpt>
      <trkpt lat="43.43776" lon="6.6165">
        <ele>107.87580871582</ele>
        <time>2021-01-11T18:27:14.782Z</time>
      </trkpt>
      <trkpt lat="43.43794" lon="6.61656">
        <ele>107.41757202148</ele>
        <time>2021-01-11T18:27:21.408Z</time>
      </trkpt>
      <trkpt lat="43.43812" lon="6.61661">
        <ele>106.90165710449</ele>
        <time>2021-01-11T18:27:28.059Z</time>
      </trkpt>
      <trkpt lat="43.43812" lon="6.61672">
        <ele>106.2417678833</ele>
        <time>2021-01-11T18:27:34.720Z</time>
      </trkpt>
      <trkpt lat="43.43817" lon="6.6172">
        <ele>103.70269775391</ele>
        <time>2021-01-11T18:27:41.428Z</time>
      </trkpt>
      <trkpt lat="43.43819" lon="6.61727">
        <ele>103.37875366211</ele>
        <time>2021-01-11T18:27:48.144Z</time>
      </trkpt>
      <trkpt lat="43.43823" lon="6.61732">
        <ele>103.05480957031</ele>
        <time>2021-01-11T18:27:54.867Z</time>
      </trkpt>
      <trkpt lat="43.43844" lon="6.6175">
        <ele>101.12223815918</ele>
        <time>2021-01-11T18:28:01.623Z</time>
      </trkpt>
      <trkpt lat="43.43848" lon="6.61768">
        <ele>99.6824798584</ele>
        <time>2021-01-11T18:28:08.397Z</time>
      </trkpt>
      <trkpt lat="43.4385" lon="6.61806">
        <ele>96.83882141113</ele>
        <time>2021-01-11T18:28:15.208Z</time>
      </trkpt>
      <trkpt lat="43.43852" lon="6.61815">
        <ele>96.04695892334</ele>
        <time>2021-01-11T18:28:22.028Z</time>
      </trkpt>
      <trkpt lat="43.43867" lon="6.61837">
        <ele>93.1551361084</ele>
        <time>2021-01-11T18:28:28.878Z</time>
      </trkpt>
      <trkpt lat="43.43874" lon="6.61841">
        <ele>92.32344818115</ele>
        <time>2021-01-11T18:28:35.738Z</time>
      </trkpt>
      <trkpt lat="43.43879" lon="6.61842">
        <ele>91.87951660156</ele>
        <time>2021-01-11T18:28:42.605Z</time>
      </trkpt>
      <trkpt lat="43.43899" lon="6.61836">
        <ele>90.94367980957</ele>
        <time>2021-01-11T18:28:49.499Z</time>
      </trkpt>
      <trkpt lat="43.43906" lon="6.61838">
        <ele>90.27178955078</ele>
        <time>2021-01-11T18:28:56.402Z</time>
      </trkpt>
      <trkpt lat="43.43913" lon="6.61845">
        <ele>89.1799697876</ele>
        <time>2021-01-11T18:29:03.317Z</time>
      </trkpt>
      <trkpt lat="43.43929" lon="6.61873">
        <ele>85.67655181885</ele>
        <time>2021-01-11T18:29:10.266Z</time>
      </trkpt>
      <trkpt lat="43.4394" lon="6.61895">
        <ele>83.4044342041</ele>
        <time>2021-01-11T18:29:17.241Z</time>
      </trkpt>
      <trkpt lat="43.43945" lon="6.61901">
        <ele>82.78054046631</ele>
        <time>2021-01-11T18:29:24.225Z</time>
      </trkpt>
      <trkpt lat="43.43948" lon="6.61904">
        <ele>82.43263244629</ele>
        <time>2021-01-11T18:29:31.214Z</time>
      </trkpt>
      <trkpt lat="43.43961" lon="6.61918">
        <ele>80.77690887451</ele>
        <time>2021-01-11T18:29:38.225Z</time>
      </trkpt>
      <trkpt lat="43.43973" lon="6.61935">
        <ele>78.85723114014</ele>
        <time>2021-01-11T18:29:45.259Z</time>
      </trkpt>
      <trkpt lat="43.43977" lon="6.61939">
        <ele>78.37731170654</ele>
        <time>2021-01-11T18:29:52.300Z</time>
      </trkpt>
      <trkpt lat="43.43985" lon="6.6194">
        <ele>78.08936309814</ele>
        <time>2021-01-11T18:29:59.352Z</time>
      </trkpt>
      <trkpt lat="43.4399" lon="6.6194">
        <ele>77.96938323975</ele>
        <time>2021-01-11T18:30:06.410Z</time>
      </trkpt>
      <trkpt lat="43.43997" lon="6.61937">
        <ele>78.08936309814</ele>
        <time>2021-01-11T18:30:13.478Z</time>
      </trkpt>
      <trkpt lat="43.44006" lon="6.6193">
        <ele>78.54528045654</ele>
        <time>2021-01-11T18:30:20.560Z</time>
      </trkpt>
      <trkpt lat="43.44021" lon="6.61913">
        <ele>79.11638641357</ele>
        <time>2021-01-11T18:30:27.668Z</time>
      </trkpt>
      <trkpt lat="43.44046" lon="6.61877">
        <ele>75.60893249512</ele>
        <time>2021-01-11T18:30:34.824Z</time>
      </trkpt>
      <trkpt lat="43.44059" lon="6.61852">
        <ele>73.36446380615</ele>
        <time>2021-01-11T18:30:42.010Z</time>
      </trkpt>
      <trkpt lat="43.44065" lon="6.61846">
        <ele>72.57259368896</ele>
        <time>2021-01-11T18:30:49.206Z</time>
      </trkpt>
      <trkpt lat="43.44079" lon="6.61838">
        <ele>70.65291595459</ele>
        <time>2021-01-11T18:30:56.422Z</time>
      </trkpt>
      <trkpt lat="43.441" lon="6.61823">
        <ele>67.71706390381</ele>
        <time>2021-01-11T18:31:03.670Z</time>
      </trkpt>
      <trkpt lat="43.44107" lon="6.61815">
        <ele>66.5592956543</ele>
        <time>2021-01-11T18:31:10.930Z</time>
      </trkpt>
      <trkpt lat="43.44132" lon="6.61789">
        <ele>62.38399124146</ele>
        <time>2021-01-11T18:31:18.231Z</time>
      </trkpt>
      <trkpt lat="43.44139" lon="6.61785">
        <ele>61.13619995117</ele>
        <time>2021-01-11T18:31:25.543Z</time>
      </trkpt>
      <trkpt lat="43.44155" lon="6.61782">
        <ele>58.13669967651</ele>
        <time>2021-01-11T18:31:32.876Z</time>
      </trkpt>
      <trkpt lat="43.44162" lon="6.61783">
        <ele>56.76892852783</ele>
        <time>2021-01-11T18:31:40.219Z</time>
      </trkpt>
      <trkpt lat="43.44165" lon="6.61786">
        <ele>56.12103652954</ele>
        <time>2021-01-11T18:31:47.566Z</time>
      </trkpt>
      <trkpt lat="43.4418" lon="6.6183">
        <ele>51.77737045288</ele>
        <time>2021-01-11T18:31:54.961Z</time>
      </trkpt>
      <trkpt lat="43.44187" lon="6.61862">
        <ele>48.56927871704</ele>
        <time>2021-01-11T18:32:02.388Z</time>
      </trkpt>
      <trkpt lat="43.44189" lon="6.61866">
        <ele>47.96937942505</ele>
        <time>2021-01-11T18:32:09.820Z</time>
      </trkpt>
      <trkpt lat="43.44193" lon="6.61867">
        <ele>47.18951034546</ele>
        <time>2021-01-11T18:32:17.257Z</time>
      </trkpt>
      <trkpt lat="43.44196" lon="6.61865">
        <ele>46.76958084106</ele>
        <time>2021-01-11T18:32:24.699Z</time>
      </trkpt>
      <trkpt lat="43.44199" lon="6.6186">
        <ele>46.52962112427</ele>
        <time>2021-01-11T18:32:32.147Z</time>
      </trkpt>
      <trkpt lat="43.44205" lon="6.6185">
        <ele>46.14862442017</ele>
        <time>2021-01-11T18:32:39.607Z</time>
      </trkpt>
      <trkpt lat="43.44206" lon="6.61848">
        <ele>46.08360671997</ele>
        <time>2021-01-11T18:32:47.070Z</time>
      </trkpt>
      <trkpt lat="43.44206" lon="6.61847">
        <ele>46.04970169067</ele>
        <time>2021-01-11T18:32:54.534Z</time>
      </trkpt>
      <trkpt lat="43.44211" lon="6.61843">
        <ele>45.03114700317</ele>
        <time>2021-01-11T18:33:02.005Z</time>
      </trkpt>
      <trkpt lat="43.44219" lon="6.6187">
        <ele>42.33031845093</ele>
        <time>2021-01-11T18:33:09.505Z</time>
      </trkpt>
      <trkpt lat="43.44225" lon="6.6188">
        <ele>40.65060043335</ele>
        <time>2021-01-11T18:33:17.017Z</time>
      </trkpt>
      <trkpt lat="43.44232" lon="6.61886">
        <ele>39.03086853027</ele>
        <time>2021-01-11T18:33:24.540Z</time>
      </trkpt>
      <trkpt lat="43.44243" lon="6.61888">
        <ele>36.9312210083</ele>
        <time>2021-01-11T18:33:32.078Z</time>
      </trkpt>
      <trkpt lat="43.44278" lon="6.61882">
        <ele>29.60660171509</ele>
        <time>2021-01-11T18:33:39.663Z</time>
      </trkpt>
      <trkpt lat="43.44298" lon="6.61883">
        <ele>26.51111793518</ele>
        <time>2021-01-11T18:33:47.275Z</time>
      </trkpt>
      <trkpt lat="43.4432" lon="6.61894">
        <ele>23.34364700317</ele>
        <time>2021-01-11T18:33:54.918Z</time>
      </trkpt>
      <trkpt lat="43.44336" lon="6.61905">
        <ele>20.9681892395</ele>
        <time>2021-01-11T18:34:02.585Z</time>
      </trkpt>
      <trkpt lat="43.44364" lon="6.61928">
        <ele>18.19716453552</ele>
        <time>2021-01-11T18:34:10.295Z</time>
      </trkpt>
      <trkpt lat="43.44372" lon="6.61941">
        <ele>17.78923225403</ele>
        <time>2021-01-11T18:34:18.022Z</time>
      </trkpt>
      <trkpt lat="43.44387" lon="6.61975">
        <ele>16.79339790344</ele>
        <time>2021-01-11T18:34:25.788Z</time>
      </trkpt>
      <trkpt lat="43.44396" lon="6.6201">
        <ele>15.84555625916</ele>
        <time>2021-01-11T18:34:33.590Z</time>
      </trkpt>
      <trkpt lat="43.44398" lon="6.62018">
        <ele>15.63358306885</ele>
        <time>2021-01-11T18:34:41.400Z</time>
      </trkpt>
      <trkpt lat="43.44399" lon="6.6202">
        <ele>15.57766151428</ele>
        <time>2021-01-11T18:34:49.212Z</time>
      </trkpt>
      <trkpt lat="43.44399" lon="6.6202">
        <ele>15.56960201263</ele>
        <time>2021-01-11T18:34:57.024Z</time>
      </trkpt>
      <trkpt lat="43.44404" lon="6.62026">
        <ele>15.36563587189</ele>
        <time>2021-01-11T18:35:04.845Z</time>
      </trkpt>
      <trkpt lat="43.44411" lon="6.62028">
        <ele>15.23365879059</ele>
        <time>2021-01-11T18:35:12.675Z</time>
      </trkpt>
      <trkpt lat="43.44452" lon="6.62022">
        <ele>14.88571643829</ele>
        <time>2021-01-11T18:35:20.560Z</time>
      </trkpt>
      <trkpt lat="43.44461" lon="6.62021">
        <ele>14.80173015594</ele>
        <time>2021-01-11T18:35:28.457Z</time>
      </trkpt>
      <trkpt lat="43.44479" lon="6.62023">
        <ele>14.537774086</ele>
        <time>2021-01-11T18:35:36.379Z</time>
      </trkpt>
      <trkpt lat="43.4454" lon="6.62046">
        <ele>13.54464912415</ele>
        <time>2021-01-11T18:35:44.385Z</time>
      </trkpt>
      <trkpt lat="43.4459" lon="6.62059">
        <ele>13.2257900238</ele>
        <time>2021-01-11T18:35:52.459Z</time>
      </trkpt>
      <trkpt lat="43.4464" lon="6.62068">
        <ele>13.49882984161</ele>
        <time>2021-01-11T18:36:00.600Z</time>
      </trkpt>
      <trkpt lat="43.44663" lon="6.62073">
        <ele>14.07614326477</ele>
        <time>2021-01-11T18:36:08.772Z</time>
      </trkpt>
      <trkpt lat="43.44682" lon="6.62085">
        <ele>15.16796112061</ele>
        <time>2021-01-11T18:36:16.972Z</time>
      </trkpt>
      <trkpt lat="43.44702" lon="6.62115">
        <ele>16.39587593079</ele>
        <time>2021-01-11T18:36:25.211Z</time>
      </trkpt>
      <trkpt lat="43.44715" lon="6.62133">
        <ele>17.06776428223</ele>
        <time>2021-01-11T18:36:33.475Z</time>
      </trkpt>
      <trkpt lat="43.44755" lon="6.62168">
        <ele>17.09337043762</ele>
        <time>2021-01-11T18:36:41.802Z</time>
      </trkpt>
      <trkpt lat="43.44761" lon="6.62174">
        <ele>17.02138137817</ele>
        <time>2021-01-11T18:36:50.139Z</time>
      </trkpt>
      <trkpt lat="43.44772" lon="6.62194">
        <ele>17.06495475769</ele>
        <time>2021-01-11T18:36:58.501Z</time>
      </trkpt>
      <trkpt lat="43.44788" lon="6.62227">
        <ele>17.10095024109</ele>
        <time>2021-01-11T18:37:06.901Z</time>
      </trkpt>
      <trkpt lat="43.4481" lon="6.62249">
        <ele>15.819272995</ele>
        <time>2021-01-11T18:37:15.337Z</time>
      </trkpt>
      <trkpt lat="43.44828" lon="6.62263">
        <ele>14.52348899841</ele>
        <time>2021-01-11T18:37:23.801Z</time>
      </trkpt>
      <trkpt lat="43.44854" lon="6.62278">
        <ele>12.9419670105</ele>
        <time>2021-01-11T18:37:32.302Z</time>
      </trkpt>
      <trkpt lat="43.44861" lon="6.62287">
        <ele>12.85798072815</ele>
        <time>2021-01-11T18:37:40.816Z</time>
      </trkpt>
      <trkpt lat="43.44864" lon="6.62297">
        <ele>12.8219871521</ele>
        <time>2021-01-11T18:37:49.341Z</time>
      </trkpt>
      <trkpt lat="43.44864" lon="6.62304">
        <ele>12.8219871521</ele>
        <time>2021-01-11T18:37:57.873Z</time>
      </trkpt>
      <trkpt lat="43.44864" lon="6.62304">
        <ele>12.8222322464</ele>
        <time>2021-01-11T18:38:06.405Z</time>
      </trkpt>
      <trkpt lat="43.44864" lon="6.62307">
        <ele>12.82337379456</ele>
        <time>2021-01-11T18:38:14.939Z</time>
      </trkpt>
      <trkpt lat="43.44862" lon="6.6235">
        <ele>12.24986553192</ele>
        <time>2021-01-11T18:38:23.515Z</time>
      </trkpt>
      <trkpt lat="43.44867" lon="6.62392">
        <ele>11.24203300476</ele>
        <time>2021-01-11T18:38:32.133Z</time>
      </trkpt>
      <trkpt lat="43.44874" lon="6.6244">
        <ele>11.14109897614</ele>
        <time>2021-01-11T18:38:40.798Z</time>
      </trkpt>
      <trkpt lat="43.44878" lon="6.62499">
        <ele>10.69196987152</ele>
        <time>2021-01-11T18:38:49.521Z</time>
      </trkpt>
      <trkpt lat="43.44879" lon="6.62567">
        <ele>11.95726680756</ele>
        <time>2021-01-11T18:38:58.310Z</time>
      </trkpt>
      <trkpt lat="43.4488" lon="6.6261">
        <ele>12.12456607819</ele>
        <time>2021-01-11T18:39:07.141Z</time>
      </trkpt>
      <trkpt lat="43.44885" lon="6.62647">
        <ele>12.50850200653</ele>
        <time>2021-01-11T18:39:16.008Z</time>
      </trkpt>
      <trkpt lat="43.44888" lon="6.62675">
        <ele>12.534034729</ele>
        <time>2021-01-11T18:39:24.903Z</time>
      </trkpt>
      <trkpt lat="43.44886" lon="6.62702">
        <ele>12.55803108215</ele>
        <time>2021-01-11T18:39:33.824Z</time>
      </trkpt>
      <trkpt lat="43.44857" lon="6.62891">
        <ele>13</ele>
        <time>2021-01-11T18:39:42.933Z</time>
      </trkpt>
      <trkpt lat="43.44825" lon="6.63058">
        <ele>12.4787569046</ele>
        <time>2021-01-11T18:39:52.209Z</time>
      </trkpt>
      <trkpt lat="43.448" lon="6.63178">
        <ele>16.30872917175</ele>
        <time>2021-01-11T18:40:01.607Z</time>
      </trkpt>
      <trkpt lat="43.44796" lon="6.63208">
        <ele>15.81904983521</ele>
        <time>2021-01-11T18:40:11.034Z</time>
      </trkpt>
      <trkpt lat="43.44795" lon="6.63233">
        <ele>14.99118804932</ele>
        <time>2021-01-11T18:40:20.486Z</time>
      </trkpt>
      <trkpt lat="43.44798" lon="6.63259">
        <ele>14.96437931061</ele>
        <time>2021-01-11T18:40:29.963Z</time>
      </trkpt>
      <trkpt lat="43.448" lon="6.63281">
        <ele>14.40903568268</ele>
        <time>2021-01-11T18:40:39.462Z</time>
      </trkpt>
      <trkpt lat="43.44797" lon="6.63292">
        <ele>13.91711807251</ele>
        <time>2021-01-11T18:40:48.972Z</time>
      </trkpt>
      <trkpt lat="43.44789" lon="6.63311">
        <ele>13.10125350952</ele>
        <time>2021-01-11T18:40:58.503Z</time>
      </trkpt>
      <trkpt lat="43.44788" lon="6.63322">
        <ele>12.69671154022</ele>
        <time>2021-01-11T18:41:08.045Z</time>
      </trkpt>
      <trkpt lat="43.44793" lon="6.63322">
        <ele>12.63672065735</ele>
        <time>2021-01-11T18:41:17.594Z</time>
      </trkpt>
      <trkpt lat="43.44803" lon="6.63323">
        <ele>12.50474357605</ele>
        <time>2021-01-11T18:41:27.156Z</time>
      </trkpt>
      <trkpt lat="43.44805" lon="6.63323">
        <ele>12.47740268707</ele>
        <time>2021-01-11T18:41:36.721Z</time>
      </trkpt>
      <trkpt lat="43.44805" lon="6.63323">
        <ele>12.47737216949</ele>
        <time>2021-01-11T18:41:46.286Z</time>
      </trkpt>
      <trkpt lat="43.44806" lon="6.63323">
        <ele>12.46874904633</ele>
        <time>2021-01-11T18:41:55.852Z</time>
      </trkpt>
      <trkpt lat="43.44807" lon="6.63323">
        <ele>12.45876693726</ele>
        <time>2021-01-11T18:42:05.419Z</time>
      </trkpt>
      <trkpt lat="43.44827" lon="6.63322">
        <ele>12.22878932953</ele>
        <time>2021-01-11T18:42:15.013Z</time>
      </trkpt>
      <trkpt lat="43.4493" lon="6.63304">
        <ele>11.96988105774</ele>
        <time>2021-01-11T18:42:24.746Z</time>
      </trkpt>
      <trkpt lat="43.4499" lon="6.63304">
        <ele>11.3102388382</ele>
        <time>2021-01-11T18:42:34.559Z</time>
      </trkpt>
      <trkpt lat="43.45059" lon="6.63307">
        <ele>11.51762294769</ele>
        <time>2021-01-11T18:42:44.464Z</time>
      </trkpt>
      <trkpt lat="43.45114" lon="6.63318">
        <ele>12.15577697754</ele>
        <time>2021-01-11T18:42:54.443Z</time>
      </trkpt>
      <trkpt lat="43.45185" lon="6.6333">
        <ele>13.02749156952</ele>
        <time>2021-01-11T18:43:04.517Z</time>
      </trkpt>
      <trkpt lat="43.45185" lon="6.6333">
        <ele>13.02840042114</ele>
        <time>2021-01-11T18:43:14.591Z</time>
      </trkpt>
      <trkpt lat="43.45185" lon="6.6333">
        <ele>13.0293712616</ele>
        <time>2021-01-11T18:43:24.665Z</time>
      </trkpt>
      <trkpt lat="43.45185" lon="6.63328">
        <ele>13.03394985199</ele>
        <time>2021-01-11T18:43:34.741Z</time>
      </trkpt>
      <trkpt lat="43.45214" lon="6.63177">
        <ele>10.2118396759</ele>
        <time>2021-01-11T18:43:44.969Z</time>
      </trkpt>
      <trkpt lat="43.45217" lon="6.63135">
        <ele>10.23996162415</ele>
        <time>2021-01-11T18:43:55.238Z</time>
      </trkpt>
      <trkpt lat="43.45217" lon="6.63134">
        <ele>10.21622848511</ele>
        <time>2021-01-11T18:44:05.508Z</time>
      </trkpt>
      <trkpt lat="43.45217" lon="6.63133">
        <ele>10.19379520416</ele>
        <time>2021-01-11T18:44:15.779Z</time>
      </trkpt>
      <trkpt lat="43.45217" lon="6.63131">
        <ele>10.14424037933</ele>
        <time>2021-01-11T18:44:26.052Z</time>
      </trkpt>
      <trkpt lat="43.45235" lon="6.63131">
        <ele>11.00809669495</ele>
        <time>2021-01-11T18:44:36.349Z</time>
      </trkpt>
      <trkpt lat="43.4524" lon="6.63138">
        <ele>11.41602802277</ele>
        <time>2021-01-11T18:44:46.655Z</time>
      </trkpt>
      <trkpt lat="43.45242" lon="6.6315">
        <ele>11.79996490479</ele>
        <time>2021-01-11T18:44:56.973Z</time>
      </trkpt>
      <trkpt lat="43.45248" lon="6.63174">
        <ele>11.87956142426</ele>
        <time>2021-01-11T18:45:07.316Z</time>
      </trkpt>
      <trkpt lat="43.45258" lon="6.6318">
        <ele>12.28749370575</ele>
        <time>2021-01-11T18:45:17.673Z</time>
      </trkpt>
      <trkpt lat="43.45268" lon="6.6318">
        <ele>12.66659259796</ele>
        <time>2021-01-11T18:45:28.044Z</time>
      </trkpt>
      <trkpt lat="43.45275" lon="6.63177">
        <ele>12.70258617401</ele>
        <time>2021-01-11T18:45:38.424Z</time>
      </trkpt>
      <trkpt lat="43.4528" lon="6.63167">
        <ele>12.82256603241</ele>
        <time>2021-01-11T18:45:48.816Z</time>
      </trkpt>
      <trkpt lat="43.45281" lon="6.63153">
        <ele>12.64710330963</ele>
        <time>2021-01-11T18:45:59.222Z</time>
      </trkpt>
      <trkpt lat="43.4529" lon="6.63136">
        <ele>12.42167758942</ele>
        <time>2021-01-11T18:46:09.648Z</time>
      </trkpt>
      <trkpt lat="43.45298" lon="6.63129">
        <ele>12.22970962524</ele>
        <time>2021-01-11T18:46:20.087Z</time>
      </trkpt>
      <trkpt lat="43.45308" lon="6.63126">
        <ele>11.98974990845</ele>
        <time>2021-01-11T18:46:30.540Z</time>
      </trkpt>
      <trkpt lat="43.45355" lon="6.63117">
        <ele>11.06903171539</ele>
        <time>2021-01-11T18:46:41.056Z</time>
      </trkpt>
      <trkpt lat="43.45378" lon="6.63109">
        <ele>11.34498500824</ele>
        <time>2021-01-11T18:46:51.603Z</time>
      </trkpt>
      <trkpt lat="43.45423" lon="6.63103">
        <ele>11.4095621109</ele>
        <time>2021-01-11T18:47:02.211Z</time>
      </trkpt>
      <trkpt lat="43.45445" lon="6.63096">
        <ele>11.47442722321</ele>
        <time>2021-01-11T18:47:12.849Z</time>
      </trkpt>
      <trkpt lat="43.45506" lon="6.63085">
        <ele>12.76145839691</ele>
        <time>2021-01-11T18:47:23.569Z</time>
      </trkpt>
      <trkpt lat="43.45527" lon="6.63086">
        <ele>13.38140296936</ele>
        <time>2021-01-11T18:47:34.316Z</time>
      </trkpt>
      <trkpt lat="43.45527" lon="6.63086">
        <ele>13.38222885132</ele>
        <time>2021-01-11T18:47:45.063Z</time>
      </trkpt>
      <trkpt lat="43.45528" lon="6.63086">
        <ele>13.43867588043</ele>
        <time>2021-01-11T18:47:55.812Z</time>
      </trkpt>
      <trkpt lat="43.45529" lon="6.63086">
        <ele>13.47004985809</ele>
        <time>2021-01-11T18:48:06.562Z</time>
      </trkpt>
      <trkpt lat="43.4553" lon="6.63086">
        <ele>13.50604438782</ele>
        <time>2021-01-11T18:48:17.314Z</time>
      </trkpt>
      <trkpt lat="43.45538" lon="6.63097">
        <ele>13.79399585724</ele>
        <time>2021-01-11T18:48:28.081Z</time>
      </trkpt>
      <trkpt lat="43.45555" lon="6.63102">
        <ele>14.47696208954</ele>
        <time>2021-01-11T18:48:38.871Z</time>
      </trkpt>
      <trkpt lat="43.45566" lon="6.63111">
        <ele>14.89689159393</ele>
        <time>2021-01-11T18:48:49.678Z</time>
      </trkpt>
      <trkpt lat="43.45579" lon="6.63128">
        <ele>15.316822052</ele>
        <time>2021-01-11T18:49:00.509Z</time>
      </trkpt>
      <trkpt lat="43.45613" lon="6.63191">
        <ele>15.5627746582</ele>
        <time>2021-01-11T18:49:11.416Z</time>
      </trkpt>
      <trkpt lat="43.45633" lon="6.63222">
        <ele>15.53877830505</ele>
        <time>2021-01-11T18:49:22.363Z</time>
      </trkpt>
      <trkpt lat="43.45641" lon="6.63248">
        <ele>15.05356311798</ele>
        <time>2021-01-11T18:49:33.338Z</time>
      </trkpt>
      <trkpt lat="43.45656" lon="6.63325">
        <ele>13.2877407074</ele>
        <time>2021-01-11T18:49:44.390Z</time>
      </trkpt>
      <trkpt lat="43.45663" lon="6.63368">
        <ele>12.93979930878</ele>
        <time>2021-01-11T18:49:55.485Z</time>
      </trkpt>
      <trkpt lat="43.45661" lon="6.63367">
        <ele>12.9046497345</ele>
        <time>2021-01-11T18:50:06.583Z</time>
      </trkpt>
      <trkpt lat="43.45661" lon="6.63367">
        <ele>12.90464401245</ele>
        <time>2021-01-11T18:50:17.681Z</time>
      </trkpt>
      <trkpt lat="43.45661" lon="6.63367">
        <ele>12.90380477905</ele>
        <time>2021-01-11T18:50:28.779Z</time>
      </trkpt>
      <trkpt lat="43.45677" lon="6.63372">
        <ele>13.2277507782</ele>
        <time>2021-01-11T18:50:39.899Z</time>
      </trkpt>
      <trkpt lat="43.45695" lon="6.6338">
        <ele>13.26699256897</ele>
        <time>2021-01-11T18:50:51.044Z</time>
      </trkpt>
      <trkpt lat="43.4572" lon="6.63398">
        <ele>13.05102825165</ele>
        <time>2021-01-11T18:51:02.227Z</time>
      </trkpt>
      <trkpt lat="43.45736" lon="6.63417">
        <ele>13</ele>
        <time>2021-01-11T18:51:13.438Z</time>
      </trkpt>
      <trkpt lat="43.4574" lon="6.63421">
        <ele>13</ele>
        <time>2021-01-11T18:51:24.656Z</time>
      </trkpt>
      <trkpt lat="43.45741" lon="6.63427">
        <ele>13</ele>
        <time>2021-01-11T18:51:35.880Z</time>
      </trkpt>
      <trkpt lat="43.4574" lon="6.63439">
        <ele>13</ele>
        <time>2021-01-11T18:51:47.115Z</time>
      </trkpt>
      <trkpt lat="43.45737" lon="6.63451">
        <ele>13</ele>
        <time>2021-01-11T18:51:58.363Z</time>
      </trkpt>
      <trkpt lat="43.45727" lon="6.6346">
        <ele>13</ele>
        <time>2021-01-11T18:52:09.627Z</time>
      </trkpt>
      <trkpt lat="43.4571" lon="6.63454">
        <ele>13</ele>
        <time>2021-01-11T18:52:20.914Z</time>
      </trkpt>
      <trkpt lat="43.45717" lon="6.63484">
        <ele>13</ele>
        <time>2021-01-11T18:52:32.231Z</time>
      </trkpt>
      <trkpt lat="43.45725" lon="6.63522">
        <ele>13</ele>
        <time>2021-01-11T18:52:43.587Z</time>
      </trkpt>
      <trkpt lat="43.45752" lon="6.63647">
        <ele>12.6644744873</ele>
        <time>2021-01-11T18:52:55.070Z</time>
      </trkpt>
      <trkpt lat="43.45766" lon="6.63722">
        <ele>11.32714271545</ele>
        <time>2021-01-11T18:53:06.628Z</time>
      </trkpt>
      <trkpt lat="43.45779" lon="6.63776">
        <ele>11.48421573639</ele>
        <time>2021-01-11T18:53:18.241Z</time>
      </trkpt>
      <trkpt lat="43.45787" lon="6.63797">
        <ele>11.74017047882</ele>
        <time>2021-01-11T18:53:29.877Z</time>
      </trkpt>
      <trkpt lat="43.45788" lon="6.63799">
        <ele>11.76016998291</ele>
        <time>2021-01-11T18:53:41.515Z</time>
      </trkpt>
      <trkpt lat="43.45809" lon="6.63828">
        <ele>12</ele>
        <time>2021-01-11T18:53:53.193Z</time>
      </trkpt>
      <trkpt lat="43.45829" lon="6.63916">
        <ele>12.16393566132</ele>
        <time>2021-01-11T18:54:04.961Z</time>
      </trkpt>
      <trkpt lat="43.45833" lon="6.6393">
        <ele>12.33190822601</ele>
        <time>2021-01-11T18:54:16.743Z</time>
      </trkpt>
      <trkpt lat="43.45847" lon="6.63986">
        <ele>12.94029903412</ele>
        <time>2021-01-11T18:54:28.583Z</time>
      </trkpt>
      <trkpt lat="43.45852" lon="6.64019">
        <ele>12.56823253632</ele>
        <time>2021-01-11T18:54:40.455Z</time>
      </trkpt>
      <trkpt lat="43.4585" lon="6.64065">
        <ele>12.04032039642</ele>
        <time>2021-01-11T18:54:52.372Z</time>
      </trkpt>
      <trkpt lat="43.45863" lon="6.64146">
        <ele>11.83598423004</ele>
        <time>2021-01-11T18:55:04.370Z</time>
      </trkpt>
      <trkpt lat="43.45878" lon="6.64228">
        <ele>11.65601444244</ele>
        <time>2021-01-11T18:55:16.450Z</time>
      </trkpt>
      <trkpt lat="43.45896" lon="6.64314">
        <ele>12</ele>
        <time>2021-01-11T18:55:28.617Z</time>
      </trkpt>
      <trkpt lat="43.45897" lon="6.64317">
        <ele>12</ele>
        <time>2021-01-11T18:55:40.787Z</time>
      </trkpt>
      <trkpt lat="43.45931" lon="6.64476">
        <ele>10.19412708282</ele>
        <time>2021-01-11T18:55:53.118Z</time>
      </trkpt>
      <trkpt lat="43.46001" lon="6.64789">
        <ele>11.45792961121</ele>
        <time>2021-01-11T18:56:05.767Z</time>
      </trkpt>
      <trkpt lat="43.46008" lon="6.64811">
        <ele>11.8058719635</ele>
        <time>2021-01-11T18:56:18.439Z</time>
      </trkpt>
      <trkpt lat="43.46011" lon="6.64815">
        <ele>11.87943935394</ele>
        <time>2021-01-11T18:56:31.117Z</time>
      </trkpt>
      <trkpt lat="43.46014" lon="6.64816">
        <ele>11.9359664917</ele>
        <time>2021-01-11T18:56:43.799Z</time>
      </trkpt>
      <trkpt lat="43.46017" lon="6.64817">
        <ele>11.96242713928</ele>
        <time>2021-01-11T18:56:56.485Z</time>
      </trkpt>
      <trkpt lat="43.46056" lon="6.6483">
        <ele>11.5203704834</ele>
        <time>2021-01-11T18:57:09.224Z</time>
      </trkpt>
      <trkpt lat="43.46104" lon="6.64843">
        <ele>11.05553340912</ele>
        <time>2021-01-11T18:57:22.029Z</time>
      </trkpt>
      <trkpt lat="43.46124" lon="6.64839">
        <ele>11.41030025482</ele>
        <time>2021-01-11T18:57:34.861Z</time>
      </trkpt>
      <trkpt lat="43.46149" lon="6.64826">
        <ele>12.62209796906</ele>
        <time>2021-01-11T18:57:47.728Z</time>
      </trkpt>
      <trkpt lat="43.46192" lon="6.64795">
        <ele>13.59882068634</ele>
        <time>2021-01-11T18:58:00.660Z</time>
      </trkpt>
      <trkpt lat="43.46222" lon="6.64777">
        <ele>13.02291679382</ele>
        <time>2021-01-11T18:58:13.636Z</time>
      </trkpt>
      <trkpt lat="43.46232" lon="6.6477">
        <ele>13</ele>
        <time>2021-01-11T18:58:26.627Z</time>
      </trkpt>
      <trkpt lat="43.46233" lon="6.64776">
        <ele>13</ele>
        <time>2021-01-11T18:58:39.623Z</time>
      </trkpt>
      <trkpt lat="43.46233" lon="6.6478">
        <ele>13</ele>
        <time>2021-01-11T18:58:52.623Z</time>
      </trkpt>
      <trkpt lat="43.4622" lon="6.646">
        <ele>11.92326641083</ele>
        <time>2021-01-11T18:59:05.799Z</time>
      </trkpt>
      <trkpt lat="43.4622" lon="6.64583">
        <ele>11.71550941467</ele>
        <time>2021-01-11T18:59:18.992Z</time>
      </trkpt>
      <trkpt lat="43.4622" lon="6.64578">
        <ele>11.65931034088</ele>
        <time>2021-01-11T18:59:32.189Z</time>
      </trkpt>
      <trkpt lat="43.46226" lon="6.64532">
        <ele>11.4807100296</ele>
        <time>2021-01-11T18:59:45.432Z</time>
      </trkpt>
      <trkpt lat="43.46238" lon="6.64476">
        <ele>11.21955013275</ele>
        <time>2021-01-11T18:59:58.732Z</time>
      </trkpt>
      <trkpt lat="43.46251" lon="6.64439">
        <ele>11.76069927216</ele>
        <time>2021-01-11T19:00:12.071Z</time>
      </trkpt>
      <trkpt lat="43.46292" lon="6.64341">
        <ele>12.04807186127</ele>
        <time>2021-01-11T19:00:25.520Z</time>
      </trkpt>
      <trkpt lat="43.46334" lon="6.64236">
        <ele>11.81836986542</ele>
        <time>2021-01-11T19:00:39.085Z</time>
      </trkpt>
      <trkpt lat="43.46348" lon="6.64195">
        <ele>11.96609115601</ele>
        <time>2021-01-11T19:00:52.694Z</time>
      </trkpt>
      <trkpt lat="43.4635" lon="6.64191">
        <ele>12.0080165863</ele>
        <time>2021-01-11T19:01:06.308Z</time>
      </trkpt>
      <trkpt lat="43.46351" lon="6.64187">
        <ele>12.07615852356</ele>
        <time>2021-01-11T19:01:19.926Z</time>
      </trkpt>
      <trkpt lat="43.4637" lon="6.64112">
        <ele>12.73145771027</ele>
        <time>2021-01-11T19:01:33.621Z</time>
      </trkpt>
      <trkpt lat="43.46382" lon="6.64052">
        <ele>12.59132766724</ele>
        <time>2021-01-11T19:01:47.377Z</time>
      </trkpt>
      <trkpt lat="43.46391" lon="6.63972">
        <ele>11</ele>
        <time>2021-01-11T19:02:01.211Z</time>
      </trkpt>
      <trkpt lat="43.46394" lon="6.63878">
        <ele>11</ele>
        <time>2021-01-11T19:02:15.137Z</time>
      </trkpt>
      <trkpt lat="43.46389" lon="6.63801">
        <ele>11.73409366608</ele>
        <time>2021-01-11T19:02:29.138Z</time>
      </trkpt>
      <trkpt lat="43.46374" lon="6.63697">
        <ele>12.57085323334</ele>
        <time>2021-01-11T19:02:43.242Z</time>
      </trkpt>
      <trkpt lat="43.46373" lon="6.63686">
        <ele>12.89783096313</ele>
        <time>2021-01-11T19:02:57.356Z</time>
      </trkpt>
      <trkpt lat="43.46372" lon="6.63681">
        <ele>13.05077266693</ele>
        <time>2021-01-11T19:03:11.476Z</time>
      </trkpt>
      <trkpt lat="43.46373" lon="6.63662">
        <ele>13.282995224</ele>
        <time>2021-01-11T19:03:25.614Z</time>
      </trkpt>
      <trkpt lat="43.4638" lon="6.63647">
        <ele>13.36698150635</ele>
        <time>2021-01-11T19:03:39.769Z</time>
      </trkpt>
      <trkpt lat="43.46382" lon="6.63643">
        <ele>13.3909778595</ele>
        <time>2021-01-11T19:03:53.929Z</time>
      </trkpt>
      <trkpt lat="43.46392" lon="6.63634">
        <ele>13.5109577179</ele>
        <time>2021-01-11T19:04:08.105Z</time>
      </trkpt>
      <trkpt lat="43.46401" lon="6.6363">
        <ele>13.61893939972</ele>
        <time>2021-01-11T19:04:22.294Z</time>
      </trkpt>
      <trkpt lat="43.46414" lon="6.6363">
        <ele>13.73250770569</ele>
        <time>2021-01-11T19:04:36.500Z</time>
      </trkpt>
      <trkpt lat="43.46431" lon="6.63639">
        <ele>13.84049034119</ele>
        <time>2021-01-11T19:04:50.730Z</time>
      </trkpt>
      <trkpt lat="43.46444" lon="6.63644">
        <ele>14.43989467621</ele>
        <time>2021-01-11T19:05:04.978Z</time>
      </trkpt>
      <trkpt lat="43.46456" lon="6.63645">
        <ele>15.03504180908</ele>
        <time>2021-01-11T19:05:19.242Z</time>
      </trkpt>
      <trkpt lat="43.46457" lon="6.63645">
        <ele>15.07578849792</ele>
        <time>2021-01-11T19:05:33.508Z</time>
      </trkpt>
      <trkpt lat="43.46457" lon="6.63649">
        <ele>15.12378025055</ele>
        <time>2021-01-11T19:05:47.777Z</time>
      </trkpt>
      <trkpt lat="43.46458" lon="6.63649">
        <ele>15.15192890167</ele>
        <time>2021-01-11T19:06:02.047Z</time>
      </trkpt>
      <trkpt lat="43.46458" lon="6.63651">
        <ele>15.19083023071</ele>
        <time>2021-01-11T19:06:16.319Z</time>
      </trkpt>
      <trkpt lat="43.46458" lon="6.63653">
        <ele>15.21130275726</ele>
        <time>2021-01-11T19:06:30.593Z</time>
      </trkpt>
      <trkpt lat="43.46463" lon="6.63676">
        <ele>15.45126247406</ele>
        <time>2021-01-11T19:06:44.890Z</time>
      </trkpt>
      <trkpt lat="43.46459" lon="6.63729">
        <ele>15.25929450989</ele>
        <time>2021-01-11T19:06:59.239Z</time>
      </trkpt>
      <trkpt lat="43.46468" lon="6.63888">
        <ele>13.88084983826</ele>
        <time>2021-01-11T19:07:13.743Z</time>
      </trkpt>
      <trkpt lat="43.46472" lon="6.64003">
        <ele>13.40926170349</ele>
        <time>2021-01-11T19:07:28.359Z</time>
      </trkpt>
      <trkpt lat="43.46476" lon="6.64041">
        <ele>13.36495113373</ele>
        <time>2021-01-11T19:07:43.012Z</time>
      </trkpt>
      <trkpt lat="43.46486" lon="6.64064">
        <ele>14.15681934357</ele>
        <time>2021-01-11T19:07:57.691Z</time>
      </trkpt>
      <trkpt lat="43.4649" lon="6.64089">
        <ele>14.13393306732</ele>
        <time>2021-01-11T19:08:12.395Z</time>
      </trkpt>
      <trkpt lat="43.46491" lon="6.64106">
        <ele>13.95396327972</ele>
        <time>2021-01-11T19:08:27.115Z</time>
      </trkpt>
      <trkpt lat="43.46488" lon="6.64132">
        <ele>13.66276550293</ele>
        <time>2021-01-11T19:08:41.861Z</time>
      </trkpt>
      <trkpt lat="43.46487" lon="6.64152">
        <ele>13.65076732635</ele>
        <time>2021-01-11T19:08:56.626Z</time>
      </trkpt>
      <trkpt lat="43.46488" lon="6.64158">
        <ele>13.79766941071</ele>
        <time>2021-01-11T19:09:11.397Z</time>
      </trkpt>
      <trkpt lat="43.46498" lon="6.64195">
        <ele>14.79692268372</ele>
        <time>2021-01-11T19:09:26.206Z</time>
      </trkpt>
      <trkpt lat="43.46499" lon="6.64198">
        <ele>14.88948822021</ele>
        <time>2021-01-11T19:09:41.019Z</time>
      </trkpt>
      <trkpt lat="43.465" lon="6.642">
        <ele>14.94338035583</ele>
        <time>2021-01-11T19:09:55.834Z</time>
      </trkpt>
      <trkpt lat="43.46501" lon="6.64202">
        <ele>14.9975605011</ele>
        <time>2021-01-11T19:10:10.651Z</time>
      </trkpt>
      <trkpt lat="43.46502" lon="6.64204">
        <ele>15.06945800781</ele>
        <time>2021-01-11T19:10:25.471Z</time>
      </trkpt>
      <trkpt lat="43.46515" lon="6.6421">
        <ele>15.36940765381</ele>
        <time>2021-01-11T19:10:40.309Z</time>
      </trkpt>
      <trkpt lat="43.46541" lon="6.64214">
        <ele>15.47868061066</ele>
        <time>2021-01-11T19:10:55.182Z</time>
      </trkpt>
      <trkpt lat="43.46559" lon="6.64216">
        <ele>15.52667236328</ele>
        <time>2021-01-11T19:11:10.079Z</time>
      </trkpt>
      <trkpt lat="43.46599" lon="6.64223">
        <ele>15.9890871048</ele>
        <time>2021-01-11T19:11:25.030Z</time>
      </trkpt>
      <trkpt lat="43.46616" lon="6.6423">
        <ele>16.59552955627</ele>
        <time>2021-01-11T19:11:40.005Z</time>
      </trkpt>
      <trkpt lat="43.46631" lon="6.64243">
        <ele>16.9608745575</ele>
        <time>2021-01-11T19:11:55.003Z</time>
      </trkpt>
      <trkpt lat="43.46645" lon="6.64259">
        <ele>17.08085441589</ele>
        <time>2021-01-11T19:12:10.026Z</time>
      </trkpt>
      <trkpt lat="43.46652" lon="6.64292">
        <ele>16.49619865417</ele>
        <time>2021-01-11T19:12:25.082Z</time>
      </trkpt>
      <trkpt lat="43.46658" lon="6.64308">
        <ele>16.20824623108</ele>
        <time>2021-01-11T19:12:40.155Z</time>
      </trkpt>
      <trkpt lat="43.46666" lon="6.64325">
        <ele>16.12252044678</ele>
        <time>2021-01-11T19:12:55.248Z</time>
      </trkpt>
      <trkpt lat="43.46684" lon="6.6435">
        <ele>16.65767860413</ele>
        <time>2021-01-11T19:13:10.375Z</time>
      </trkpt>
      <trkpt lat="43.46709" lon="6.64384">
        <ele>16.84964752197</ele>
        <time>2021-01-11T19:13:25.549Z</time>
      </trkpt>
      <trkpt lat="43.46722" lon="6.64403">
        <ele>16.91970825195</ele>
        <time>2021-01-11T19:13:40.748Z</time>
      </trkpt>
      <trkpt lat="43.46741" lon="6.64432">
        <ele>16.33180618286</ele>
        <time>2021-01-11T19:13:55.985Z</time>
      </trkpt>
      <trkpt lat="43.46748" lon="6.64438">
        <ele>16.28381538391</ele>
        <time>2021-01-11T19:14:11.233Z</time>
      </trkpt>
      <trkpt lat="43.46754" lon="6.6444">
        <ele>16.35580253601</ele>
        <time>2021-01-11T19:14:26.490Z</time>
      </trkpt>
      <trkpt lat="43.46766" lon="6.64439">
        <ele>16.67974853516</ele>
        <time>2021-01-11T19:14:41.763Z</time>
      </trkpt>
      <trkpt lat="43.46786" lon="6.64433">
        <ele>16.66112327576</ele>
        <time>2021-01-11T19:14:57.063Z</time>
      </trkpt>
      <trkpt lat="43.46792" lon="6.64434">
        <ele>16.55314254761</ele>
        <time>2021-01-11T19:15:12.371Z</time>
      </trkpt>
      <trkpt lat="43.46814" lon="6.64451">
        <ele>15.67728805542</ele>
        <time>2021-01-11T19:15:27.713Z</time>
      </trkpt>
      <trkpt lat="43.46829" lon="6.64467">
        <ele>14.92141342163</ele>
        <time>2021-01-11T19:15:43.080Z</time>
      </trkpt>
      <trkpt lat="43.46844" lon="6.64472">
        <ele>14.26378440857</ele>
        <time>2021-01-11T19:15:58.467Z</time>
      </trkpt>
      <trkpt lat="43.4685" lon="6.64473">
        <ele>14</ele>
        <time>2021-01-11T19:16:13.863Z</time>
      </trkpt>
      <trkpt lat="43.46864" lon="6.6448">
        <ele>14</ele>
        <time>2021-01-11T19:16:29.278Z</time>
      </trkpt>
      <trkpt lat="43.46892" lon="6.645">
        <ele>13.82923221588</ele>
        <time>2021-01-11T19:16:44.735Z</time>
      </trkpt>
      <trkpt lat="43.46926" lon="6.64532">
        <ele>13.44529628754</ele>
        <time>2021-01-11T19:17:00.247Z</time>
      </trkpt>
      <trkpt lat="43.46945" lon="6.64551">
        <ele>13.21733379364</ele>
        <time>2021-01-11T19:17:15.791Z</time>
      </trkpt>
      <trkpt lat="43.46978" lon="6.6459">
        <ele>13.25058841705</ele>
        <time>2021-01-11T19:17:31.393Z</time>
      </trkpt>
      <trkpt lat="43.47004" lon="6.64615">
        <ele>13.55053806305</ele>
        <time>2021-01-11T19:17:47.037Z</time>
      </trkpt>
      <trkpt lat="43.47052" lon="6.64663">
        <ele>13.39360904694</ele>
        <time>2021-01-11T19:18:02.760Z</time>
      </trkpt>
      <trkpt lat="43.47072" lon="6.64682">
        <ele>13.36961269379</ele>
        <time>2021-01-11T19:18:18.516Z</time>
      </trkpt>
      <trkpt lat="43.47089" lon="6.64692">
        <ele>13.20164108276</ele>
        <time>2021-01-11T19:18:34.296Z</time>
      </trkpt>
      <trkpt lat="43.47141" lon="6.64729">
        <ele>14.33408069611</ele>
        <time>2021-01-11T19:18:50.154Z</time>
      </trkpt>
      <trkpt lat="43.47202" lon="6.64776">
        <ele>14.74712181091</ele>
        <time>2021-01-11T19:19:06.106Z</time>
      </trkpt>
      <trkpt lat="43.47244" lon="6.64806">
        <ele>14.89109802246</ele>
        <time>2021-01-11T19:19:22.121Z</time>
      </trkpt>
      <trkpt lat="43.47282" lon="6.64826">
        <ele>15.21412372589</ele>
        <time>2021-01-11T19:19:38.190Z</time>
      </trkpt>
      <trkpt lat="43.47311" lon="6.64837">
        <ele>15.64827823639</ele>
        <time>2021-01-11T19:19:54.299Z</time>
      </trkpt>
      <trkpt lat="43.47315" lon="6.64838">
        <ele>15.71056747437</ele>
        <time>2021-01-11T19:20:10.414Z</time>
      </trkpt>
      <trkpt lat="43.47316" lon="6.64839">
        <ele>15.73375225067</ele>
        <time>2021-01-11T19:20:26.531Z</time>
      </trkpt>
      <trkpt lat="43.47317" lon="6.64839">
        <ele>15.74203491211</ele>
        <time>2021-01-11T19:20:42.648Z</time>
      </trkpt>
      <trkpt lat="43.47339" lon="6.64852">
        <ele>15.95799922943</ele>
        <time>2021-01-11T19:20:58.797Z</time>
      </trkpt>
      <trkpt lat="43.47342" lon="6.64856">
        <ele>15.93400287628</ele>
        <time>2021-01-11T19:21:14.952Z</time>
      </trkpt>
      <trkpt lat="43.47343" lon="6.64863">
        <ele>15.79002761841</ele>
        <time>2021-01-11T19:21:31.114Z</time>
      </trkpt>
      <trkpt lat="43.47342" lon="6.64874">
        <ele>15.50207519531</ele>
        <time>2021-01-11T19:21:47.287Z</time>
      </trkpt>
      <trkpt lat="43.47331" lon="6.64905">
        <ele>15.22292041779</ele>
        <time>2021-01-11T19:22:03.493Z</time>
      </trkpt>
      <trkpt lat="43.47326" lon="6.64927">
        <ele>15.28291034698</ele>
        <time>2021-01-11T19:22:19.721Z</time>
      </trkpt>
      <trkpt lat="43.47325" lon="6.64945">
        <ele>15.29490852356</ele>
        <time>2021-01-11T19:22:35.967Z</time>
      </trkpt>
      <trkpt lat="43.47329" lon="6.64964">
        <ele>15.24691581726</ele>
        <time>2021-01-11T19:22:52.232Z</time>
      </trkpt>
      <trkpt lat="43.47347" lon="6.65013">
        <ele>15.03095245361</ele>
        <time>2021-01-11T19:23:08.550Z</time>
      </trkpt>
      <trkpt lat="43.47369" lon="6.65052">
        <ele>15.69901180267</ele>
        <time>2021-01-11T19:23:24.916Z</time>
      </trkpt>
      <trkpt lat="43.47394" lon="6.65078">
        <ele>16.49324989319</ele>
        <time>2021-01-11T19:23:41.324Z</time>
      </trkpt>
      <trkpt lat="43.47431" lon="6.65093">
        <ele>17.64505767822</ele>
        <time>2021-01-11T19:23:57.784Z</time>
      </trkpt>
      <trkpt lat="43.47455" lon="6.65114">
        <ele>18.7866191864</ele>
        <time>2021-01-11T19:24:14.282Z</time>
      </trkpt>
      <trkpt lat="43.47515" lon="6.65152">
        <ele>21.93009567261</ele>
        <time>2021-01-11T19:24:30.868Z</time>
      </trkpt>
      <trkpt lat="43.4753" lon="6.65165">
        <ele>21.20707702637</ele>
        <time>2021-01-11T19:24:47.477Z</time>
      </trkpt>
      <trkpt lat="43.47541" lon="6.65178">
        <ele>20.490442276</ele>
        <time>2021-01-11T19:25:04.106Z</time>
      </trkpt>
      <trkpt lat="43.47557" lon="6.65194">
        <ele>19.53060340881</ele>
        <time>2021-01-11T19:25:20.761Z</time>
      </trkpt>
      <trkpt lat="43.47585" lon="6.65211">
        <ele>18.12359046936</ele>
        <time>2021-01-11T19:25:37.457Z</time>
      </trkpt>
      <trkpt lat="43.47641" lon="6.65232">
        <ele>20.07215118408</ele>
        <time>2021-01-11T19:25:54.230Z</time>
      </trkpt>
      <trkpt lat="43.47692" lon="6.65256">
        <ele>23.30053329468</ele>
        <time>2021-01-11T19:26:11.075Z</time>
      </trkpt>
      <trkpt lat="43.47726" lon="6.65269">
        <ele>24.94610023499</ele>
        <time>2021-01-11T19:26:27.967Z</time>
      </trkpt>
      <trkpt lat="43.47743" lon="6.65278">
        <ele>25.66598129272</ele>
        <time>2021-01-11T19:26:44.883Z</time>
      </trkpt>
      <trkpt lat="43.47776" lon="6.65297">
        <ele>26.84936523438</ele>
        <time>2021-01-11T19:27:01.847Z</time>
      </trkpt>
      <trkpt lat="43.47825" lon="6.65334">
        <ele>27.17279052734</ele>
        <time>2021-01-11T19:27:18.886Z</time>
      </trkpt>
      <trkpt lat="43.47839" lon="6.65345">
        <ele>26.94482803345</ele>
        <time>2021-01-11T19:27:35.946Z</time>
      </trkpt>
      <trkpt lat="43.47876" lon="6.65391">
        <ele>26.04902076721</ele>
        <time>2021-01-11T19:27:53.073Z</time>
      </trkpt>
      <trkpt lat="43.47925" lon="6.65443">
        <ele>27.29266738892</ele>
        <time>2021-01-11T19:28:10.282Z</time>
      </trkpt>
      <trkpt lat="43.47943" lon="6.65465">
        <ele>27.74883842468</ele>
        <time>2021-01-11T19:28:27.523Z</time>
      </trkpt>
      <trkpt lat="43.47967" lon="6.65489">
        <ele>28.14716148376</ele>
        <time>2021-01-11T19:28:44.804Z</time>
      </trkpt>
      <trkpt lat="43.47985" lon="6.65502">
        <ele>28.77029037476</ele>
        <time>2021-01-11T19:29:02.112Z</time>
      </trkpt>
      <trkpt lat="43.47988" lon="6.65505">
        <ele>28.90399360657</ele>
        <time>2021-01-11T19:29:19.425Z</time>
      </trkpt>
      <trkpt lat="43.4799" lon="6.65506">
        <ele>28.95376014709</ele>
        <time>2021-01-11T19:29:36.740Z</time>
      </trkpt>
      <trkpt lat="43.4799" lon="6.65506">
        <ele>28.96302604675</ele>
        <time>2021-01-11T19:29:54.056Z</time>
      </trkpt>
      <trkpt lat="43.47992" lon="6.65508">
        <ele>29.059009552</ele>
        <time>2021-01-11T19:30:11.375Z</time>
      </trkpt>
      <trkpt lat="43.47991" lon="6.65517">
        <ele>29.49093818665</ele>
        <time>2021-01-11T19:30:28.703Z</time>
      </trkpt>
      <trkpt lat="43.47992" lon="6.65619">
        <ele>34.39817047119</ele>
        <time>2021-01-11T19:30:46.130Z</time>
      </trkpt>
      <trkpt lat="43.4799" lon="6.65652">
        <ele>36.02114486694</ele>
        <time>2021-01-11T19:31:03.589Z</time>
      </trkpt>
      <trkpt lat="43.47984" lon="6.6568">
        <ele>36.16373062134</ele>
        <time>2021-01-11T19:31:21.077Z</time>
      </trkpt>
      <trkpt lat="43.47982" lon="6.65701">
        <ele>36.34370040894</ele>
        <time>2021-01-11T19:31:38.585Z</time>
      </trkpt>
      <trkpt lat="43.47983" lon="6.65755">
        <ele>36.22713851929</ele>
        <time>2021-01-11T19:31:56.146Z</time>
      </trkpt>
      <trkpt lat="43.47987" lon="6.65855">
        <ele>36.73495483398</ele>
        <time>2021-01-11T19:32:13.804Z</time>
      </trkpt>
      <trkpt lat="43.47987" lon="6.65872">
        <ele>36.32702255249</ele>
        <time>2021-01-11T19:32:31.478Z</time>
      </trkpt>
      <trkpt lat="43.47983" lon="6.65882">
        <ele>36.19955062866</ele>
        <time>2021-01-11T19:32:49.163Z</time>
      </trkpt>
      <trkpt lat="43.4797" lon="6.65899">
        <ele>35.88760375977</ele>
        <time>2021-01-11T19:33:06.872Z</time>
      </trkpt>
      <trkpt lat="43.47965" lon="6.6591">
        <ele>35.85557174683</ele>
        <time>2021-01-11T19:33:24.594Z</time>
      </trkpt>
      <trkpt lat="43.47955" lon="6.65943">
        <ele>36.23159790039</ele>
        <time>2021-01-11T19:33:42.351Z</time>
      </trkpt>
      <trkpt lat="43.47933" lon="6.65942">
        <ele>35.94364547729</ele>
        <time>2021-01-11T19:34:00.137Z</time>
      </trkpt>
      <trkpt lat="43.47878" lon="6.6594">
        <ele>35.2357635498</ele>
        <time>2021-01-11T19:34:17.996Z</time>
      </trkpt>
      <trkpt lat="43.47848" lon="6.65936">
        <ele>34.77983856201</ele>
        <time>2021-01-11T19:34:35.895Z</time>
      </trkpt>
      <trkpt lat="43.47813" lon="6.65932">
        <ele>34.26392364502</ele>
        <time>2021-01-11T19:34:53.841Z</time>
      </trkpt>
      <trkpt lat="43.47804" lon="6.65934">
        <ele>34.20393371582</ele>
        <time>2021-01-11T19:35:11.799Z</time>
      </trkpt>
      <trkpt lat="43.47777" lon="6.65961">
        <ele>34.52788162231</ele>
        <time>2021-01-11T19:35:29.802Z</time>
      </trkpt>
      <trkpt lat="43.47759" lon="6.65976">
        <ele>34.49630737305</ele>
        <time>2021-01-11T19:35:47.833Z</time>
      </trkpt>
      <trkpt lat="43.47737" lon="6.65998">
        <ele>33.94480514526</ele>
        <time>2021-01-11T19:36:05.900Z</time>
      </trkpt>
      <trkpt lat="43.47729" lon="6.66026">
        <ele>33.65685272217</ele>
        <time>2021-01-11T19:36:23.997Z</time>
      </trkpt>
      <trkpt lat="43.47722" lon="6.6606">
        <ele>34.6629447937</ele>
        <time>2021-01-11T19:36:42.128Z</time>
      </trkpt>
      <trkpt lat="43.47703" lon="6.66096">
        <ele>36.03797149658</ele>
        <time>2021-01-11T19:37:00.302Z</time>
      </trkpt>
      <trkpt lat="43.47685" lon="6.66128">
        <ele>37.78968048096</ele>
        <time>2021-01-11T19:37:18.515Z</time>
      </trkpt>
      <trkpt lat="43.4768" lon="6.66141">
        <ele>38.47356414795</ele>
        <time>2021-01-11T19:37:36.743Z</time>
      </trkpt>
      <trkpt lat="43.47673" lon="6.66158">
        <ele>39.25381088257</ele>
        <time>2021-01-11T19:37:54.990Z</time>
      </trkpt>
      <trkpt lat="43.47664" lon="6.66173">
        <ele>39.97369003296</ele>
        <time>2021-01-11T19:38:13.255Z</time>
      </trkpt>
      <trkpt lat="43.4766" lon="6.6619">
        <ele>40.78955459595</ele>
        <time>2021-01-11T19:38:31.538Z</time>
      </trkpt>
      <trkpt lat="43.47652" lon="6.66213">
        <ele>41.89337158203</ele>
        <time>2021-01-11T19:38:49.845Z</time>
      </trkpt>
      <trkpt lat="43.47641" lon="6.66225">
        <ele>42.46927642822</ele>
        <time>2021-01-11T19:39:08.171Z</time>
      </trkpt>
      <trkpt lat="43.47626" lon="6.66238">
        <ele>43.04658508301</ele>
        <time>2021-01-11T19:39:26.521Z</time>
      </trkpt>
      <trkpt lat="43.47623" lon="6.66246">
        <ele>43.23855209351</ele>
        <time>2021-01-11T19:39:44.880Z</time>
      </trkpt>
      <trkpt lat="43.47624" lon="6.66286">
        <ele>43.89168930054</ele>
        <time>2021-01-11T19:40:03.277Z</time>
      </trkpt>
      <trkpt lat="43.47624" lon="6.66308">
        <ele>44.15564727783</ele>
        <time>2021-01-11T19:40:21.696Z</time>
      </trkpt>
      <trkpt lat="43.47619" lon="6.66335">
        <ele>43.85830688477</ele>
        <time>2021-01-11T19:40:40.142Z</time>
      </trkpt>
      <trkpt lat="43.47612" lon="6.66358">
        <ele>43.53694534302</ele>
        <time>2021-01-11T19:40:58.612Z</time>
      </trkpt>
      <trkpt lat="43.47608" lon="6.66369">
        <ele>43.39970397949</ele>
        <time>2021-01-11T19:41:17.095Z</time>
      </trkpt>
      <trkpt lat="43.47606" lon="6.66375">
        <ele>43.33664703369</ele>
        <time>2021-01-11T19:41:35.583Z</time>
      </trkpt>
      <trkpt lat="43.47605" lon="6.66377">
        <ele>43.31317901611</ele>
        <time>2021-01-11T19:41:54.073Z</time>
      </trkpt>
      <trkpt lat="43.47605" lon="6.66377">
        <ele>43.30898666382</ele>
        <time>2021-01-11T19:42:12.564Z</time>
      </trkpt>
      <trkpt lat="43.47603" lon="6.66383">
        <ele>43.23699569702</ele>
        <time>2021-01-11T19:42:31.061Z</time>
      </trkpt>
      <trkpt lat="43.47697" lon="6.66432">
        <ele>43.85594940186</ele>
        <time>2021-01-11T19:42:49.692Z</time>
      </trkpt>
      <trkpt lat="43.47744" lon="6.66456">
        <ele>45.74222183228</ele>
        <time>2021-01-11T19:43:08.390Z</time>
      </trkpt>
      <trkpt lat="43.47882" lon="6.66528">
        <ele>50.96257781982</ele>
        <time>2021-01-11T19:43:27.285Z</time>
      </trkpt>
      <trkpt lat="43.47883" lon="6.66528">
        <ele>50.99445343018</ele>
        <time>2021-01-11T19:43:46.181Z</time>
      </trkpt>
      <trkpt lat="43.47887" lon="6.66529">
        <ele>51.17167282104</ele>
        <time>2021-01-11T19:44:05.082Z</time>
      </trkpt>
      <trkpt lat="43.47888" lon="6.6653">
        <ele>51.24641418457</ele>
        <time>2021-01-11T19:44:23.985Z</time>
      </trkpt>
      <trkpt lat="43.47888" lon="6.6653">
        <ele>51.24390029907</ele>
        <time>2021-01-11T19:44:42.888Z</time>
      </trkpt>
      <trkpt lat="43.47883" lon="6.66528">
        <ele>50.99445343018</ele>
        <time>2021-01-11T19:45:01.798Z</time>
      </trkpt>
      <trkpt lat="43.47894" lon="6.66543">
        <ele>51.29440307617</ele>
        <time>2021-01-11T19:45:20.729Z</time>
      </trkpt>
      <trkpt lat="43.47922" lon="6.66575">
        <ele>52.33948898315</ele>
        <time>2021-01-11T19:45:39.708Z</time>
      </trkpt>
      <trkpt lat="43.47924" lon="6.6658">
        <ele>52.45946884155</ele>
        <time>2021-01-11T19:45:58.693Z</time>
      </trkpt>
      <trkpt lat="43.47928" lon="6.66595">
        <ele>52.69943237305</ele>
        <time>2021-01-11T19:46:17.693Z</time>
      </trkpt>
      <trkpt lat="43.47934" lon="6.66614">
        <ele>53.03562164307</ele>
        <time>2021-01-11T19:46:36.713Z</time>
      </trkpt>
      <trkpt lat="43.4797" lon="6.66716">
        <ele>52.24166488647</ele>
        <time>2021-01-11T19:46:55.843Z</time>
      </trkpt>
      <trkpt lat="43.47975" lon="6.66724">
        <ele>52.14567947388</ele>
        <time>2021-01-11T19:47:14.984Z</time>
      </trkpt>
      <trkpt lat="43.47977" lon="6.66735">
        <ele>52.01370239258</ele>
        <time>2021-01-11T19:47:34.136Z</time>
      </trkpt>
      <trkpt lat="43.47988" lon="6.6677">
        <ele>51.59377288818</ele>
        <time>2021-01-11T19:47:53.325Z</time>
      </trkpt>
      <trkpt lat="43.48" lon="6.66805">
        <ele>51.15142440796</ele>
        <time>2021-01-11T19:48:12.551Z</time>
      </trkpt>
      <trkpt lat="43.48015" lon="6.6685">
        <ele>51.34978103638</ele>
        <time>2021-01-11T19:48:31.825Z</time>
      </trkpt>
      <trkpt lat="43.48047" lon="6.66936">
        <ele>54.97143554688</ele>
        <time>2021-01-11T19:48:51.193Z</time>
      </trkpt>
      <trkpt lat="43.48072" lon="6.66981">
        <ele>57.61099624634</ele>
        <time>2021-01-11T19:49:10.616Z</time>
      </trkpt>
      <trkpt lat="43.48106" lon="6.67041">
        <ele>58.9867477417</ele>
        <time>2021-01-11T19:49:30.113Z</time>
      </trkpt>
      <trkpt lat="43.48117" lon="6.67076">
        <ele>58.83003234863</ele>
        <time>2021-01-11T19:49:49.647Z</time>
      </trkpt>
      <trkpt lat="43.48118" lon="6.6711">
        <ele>59.94219589233</ele>
        <time>2021-01-11T19:50:09.214Z</time>
      </trkpt>
      <trkpt lat="43.48123" lon="6.67304">
        <ele>70.34529876709</ele>
        <time>2021-01-11T19:50:28.969Z</time>
      </trkpt>
      <trkpt lat="43.48122" lon="6.6733">
        <ele>71.14238739014</ele>
        <time>2021-01-11T19:50:48.750Z</time>
      </trkpt>
      <trkpt lat="43.48128" lon="6.67373">
        <ele>71.30153656006</ele>
        <time>2021-01-11T19:51:08.573Z</time>
      </trkpt>
      <trkpt lat="43.48149" lon="6.67424">
        <ele>70.14395141602</ele>
        <time>2021-01-11T19:51:28.453Z</time>
      </trkpt>
      <trkpt lat="43.48156" lon="6.67437">
        <ele>69.28009033203</ele>
        <time>2021-01-11T19:51:48.349Z</time>
      </trkpt>
      <trkpt lat="43.48169" lon="6.67452">
        <ele>68.22427368164</ele>
        <time>2021-01-11T19:52:08.267Z</time>
      </trkpt>
      <trkpt lat="43.48196" lon="6.67478">
        <ele>67.58338928223</ele>
        <time>2021-01-11T19:52:28.229Z</time>
      </trkpt>
      <trkpt lat="43.48209" lon="6.67488">
        <ele>68.13768005371</ele>
        <time>2021-01-11T19:52:48.211Z</time>
      </trkpt>
      <trkpt lat="43.48253" lon="6.67512">
        <ele>71.25716400146</ele>
        <time>2021-01-11T19:53:08.256Z</time>
      </trkpt>
      <trkpt lat="43.48261" lon="6.67518">
        <ele>71.78507232666</ele>
        <time>2021-01-11T19:53:28.313Z</time>
      </trkpt>
      <trkpt lat="43.48266" lon="6.67526">
        <ele>72.01303863525</ele>
        <time>2021-01-11T19:53:48.381Z</time>
      </trkpt>
      <trkpt lat="43.48271" lon="6.6755">
        <ele>71.74666595459</ele>
        <time>2021-01-11T19:54:08.473Z</time>
      </trkpt>
      <trkpt lat="43.48279" lon="6.67565">
        <ele>71.86664581299</ele>
        <time>2021-01-11T19:54:28.583Z</time>
      </trkpt>
      <trkpt lat="43.48301" lon="6.67591">
        <ele>73.33229064941</ele>
        <time>2021-01-11T19:54:48.732Z</time>
      </trkpt>
      <trkpt lat="43.48323" lon="6.67623">
        <ele>75.03600311279</ele>
        <time>2021-01-11T19:55:08.923Z</time>
      </trkpt>
      <trkpt lat="43.4833" lon="6.67638">
        <ele>75.57849121094</ele>
        <time>2021-01-11T19:55:29.132Z</time>
      </trkpt>
      <trkpt lat="43.4835" lon="6.6769">
        <ele>77.89182281494</ele>
        <time>2021-01-11T19:55:49.398Z</time>
      </trkpt>
      <trkpt lat="43.48363" lon="6.67719">
        <ele>78.74367523193</ele>
        <time>2021-01-11T19:56:09.697Z</time>
      </trkpt>
      <trkpt lat="43.48373" lon="6.67729">
        <ele>79.10362243652</ele>
        <time>2021-01-11T19:56:30.012Z</time>
      </trkpt>
      <trkpt lat="43.48385" lon="6.67736">
        <ele>79.41556549072</ele>
        <time>2021-01-11T19:56:50.345Z</time>
      </trkpt>
      <trkpt lat="43.48397" lon="6.67737">
        <ele>79.55865478516</ele>
        <time>2021-01-11T19:57:10.694Z</time>
      </trkpt>
      <trkpt lat="43.48434" lon="6.67736">
        <ele>79.9817199707</ele>
        <time>2021-01-11T19:57:31.092Z</time>
      </trkpt>
      <trkpt lat="43.48463" lon="6.67744">
        <ele>79.73346710205</ele>
        <time>2021-01-11T19:57:51.529Z</time>
      </trkpt>
      <trkpt lat="43.48479" lon="6.67751">
        <ele>79.62548065186</ele>
        <time>2021-01-11T19:58:11.989Z</time>
      </trkpt>
      <trkpt lat="43.48507" lon="6.67758">
        <ele>79.37181091309</ele>
        <time>2021-01-11T19:58:32.486Z</time>
      </trkpt>
      <trkpt lat="43.48511" lon="6.67758">
        <ele>79.33312988281</ele>
        <time>2021-01-11T19:58:52.989Z</time>
      </trkpt>
      <trkpt lat="43.48512" lon="6.67759">
        <ele>79.31873321533</ele>
        <time>2021-01-11T19:59:13.494Z</time>
      </trkpt>
      <trkpt lat="43.48513" lon="6.67759">
        <ele>79.31353759766</ele>
        <time>2021-01-11T19:59:34.000Z</time>
      </trkpt>
      <trkpt lat="43.48521" lon="6.67761">
        <ele>79.07744598389</ele>
        <time>2021-01-11T19:59:54.517Z</time>
      </trkpt>
      <trkpt lat="43.48519" lon="6.67772">
        <ele>79.30540466309</ele>
        <time>2021-01-11T20:00:15.045Z</time>
      </trkpt>
      <trkpt lat="43.48514" lon="6.67814">
        <ele>79.96142578125</ele>
        <time>2021-01-11T20:00:35.614Z</time>
      </trkpt>
      <trkpt lat="43.48503" lon="6.67855">
        <ele>78.14250183105</ele>
        <time>2021-01-11T20:00:56.225Z</time>
      </trkpt>
      <trkpt lat="43.48499" lon="6.67883">
        <ele>76.75073242188</ele>
        <time>2021-01-11T20:01:16.864Z</time>
      </trkpt>
      <trkpt lat="43.485" lon="6.67905">
        <ele>75.92812347412</ele>
        <time>2021-01-11T20:01:37.525Z</time>
      </trkpt>
      <trkpt lat="43.48505" lon="6.6794">
        <ele>74.66833496094</ele>
        <time>2021-01-11T20:01:58.220Z</time>
      </trkpt>
      <trkpt lat="43.48505" lon="6.67957">
        <ele>74.05643463135</ele>
        <time>2021-01-11T20:02:18.932Z</time>
      </trkpt>
      <trkpt lat="43.48502" lon="6.67977">
        <ele>73.27547454834</ele>
        <time>2021-01-11T20:02:39.663Z</time>
      </trkpt>
      <trkpt lat="43.48478" lon="6.68052">
        <ele>71.25336456299</ele>
        <time>2021-01-11T20:03:00.474Z</time>
      </trkpt>
      <trkpt lat="43.48458" lon="6.68148">
        <ele>71.81842041016</ele>
        <time>2021-01-11T20:03:21.382Z</time>
      </trkpt>
      <trkpt lat="43.48444" lon="6.68196">
        <ele>72.50733947754</ele>
        <time>2021-01-11T20:03:42.340Z</time>
      </trkpt>
      <trkpt lat="43.4842" lon="6.68287">
        <ele>74.87899780273</ele>
        <time>2021-01-11T20:04:03.392Z</time>
      </trkpt>
      <trkpt lat="43.48406" lon="6.68332">
        <ele>75.55261230469</ele>
        <time>2021-01-11T20:04:24.492Z</time>
      </trkpt>
      <trkpt lat="43.48386" lon="6.68391">
        <ele>75.1449432373</ele>
        <time>2021-01-11T20:04:45.655Z</time>
      </trkpt>
      <trkpt lat="43.48375" lon="6.6843">
        <ele>74.11093902588</ele>
        <time>2021-01-11T20:05:06.858Z</time>
      </trkpt>
      <trkpt lat="43.4837" lon="6.68464">
        <ele>74.75883483887</ele>
        <time>2021-01-11T20:05:28.095Z</time>
      </trkpt>
      <trkpt lat="43.48369" lon="6.68493">
        <ele>74.60327911377</ele>
        <time>2021-01-11T20:05:49.360Z</time>
      </trkpt>
      <trkpt lat="43.48366" lon="6.68521">
        <ele>73.39074707031</ele>
        <time>2021-01-11T20:06:10.653Z</time>
      </trkpt>
      <trkpt lat="43.48361" lon="6.68571">
        <ele>72.01097869873</ele>
        <time>2021-01-11T20:06:31.995Z</time>
      </trkpt>
      <trkpt lat="43.48356" lon="6.68593">
        <ele>71.23193359375</ele>
        <time>2021-01-11T20:06:53.359Z</time>
      </trkpt>
      <trkpt lat="43.48349" lon="6.68614">
        <ele>70.33833312988</ele>
        <time>2021-01-11T20:07:14.745Z</time>
      </trkpt>
      <trkpt lat="43.48333" lon="6.6866">
        <ele>67.82469940186</ele>
        <time>2021-01-11T20:07:36.181Z</time>
      </trkpt>
      <trkpt lat="43.48315" lon="6.68697">
        <ele>65.14914703369</ele>
        <time>2021-01-11T20:07:57.660Z</time>
      </trkpt>
      <trkpt lat="43.48298" lon="6.68731">
        <ele>63.81187820435</ele>
        <time>2021-01-11T20:08:19.179Z</time>
      </trkpt>
      <trkpt lat="43.48285" lon="6.68746">
        <ele>63.42164611816</ele>
        <time>2021-01-11T20:08:40.721Z</time>
      </trkpt>
      <trkpt lat="43.48274" lon="6.68757">
        <ele>63.31275177002</ele>
        <time>2021-01-11T20:09:02.281Z</time>
      </trkpt>
      <trkpt lat="43.48263" lon="6.68761">
        <ele>63.40641021729</ele>
        <time>2021-01-11T20:09:23.856Z</time>
      </trkpt>
      <trkpt lat="43.48254" lon="6.68763">
        <ele>62.96248626709</ele>
        <time>2021-01-11T20:09:45.443Z</time>
      </trkpt>
      <trkpt lat="43.48229" lon="6.6876">
        <ele>62.242603302</ele>
        <time>2021-01-11T20:10:07.064Z</time>
      </trkpt>
      <trkpt lat="43.48206" lon="6.68751">
        <ele>61.95465087891</ele>
        <time>2021-01-11T20:10:28.717Z</time>
      </trkpt>
      <trkpt lat="43.48201" lon="6.68749">
        <ele>61.88541412354</ele>
        <time>2021-01-11T20:10:50.377Z</time>
      </trkpt>
      <trkpt lat="43.48197" lon="6.68747">
        <ele>61.83218383789</ele>
        <time>2021-01-11T20:11:12.043Z</time>
      </trkpt>
      <trkpt lat="43.48195" lon="6.68747">
        <ele>61.81237030029</ele>
        <time>2021-01-11T20:11:33.711Z</time>
      </trkpt>
      <trkpt lat="43.48193" lon="6.68746">
        <ele>61.78668212891</ele>
        <time>2021-01-11T20:11:55.382Z</time>
      </trkpt>
      <trkpt lat="43.48171" lon="6.68743">
        <ele>61.90974807739</ele>
        <time>2021-01-11T20:12:17.082Z</time>
      </trkpt>
      <trkpt lat="43.48151" lon="6.68731">
        <ele>62.25317382812</ele>
        <time>2021-01-11T20:12:38.811Z</time>
      </trkpt>
      <trkpt lat="43.48136" lon="6.68726">
        <ele>62.31316375732</ele>
        <time>2021-01-11T20:13:00.561Z</time>
      </trkpt>
      <trkpt lat="43.4813" lon="6.68728">
        <ele>62.43507003784</ele>
        <time>2021-01-11T20:13:22.319Z</time>
      </trkpt>
      <trkpt lat="43.48126" lon="6.68729">
        <ele>62.50513458252</ele>
        <time>2021-01-11T20:13:44.082Z</time>
      </trkpt>
      <trkpt lat="43.48126" lon="6.68729">
        <ele>62.5212059021</ele>
        <time>2021-01-11T20:14:05.846Z</time>
      </trkpt>
      <trkpt lat="43.48124" lon="6.68731">
        <ele>62.56758117676</ele>
        <time>2021-01-11T20:14:27.612Z</time>
      </trkpt>
      <trkpt lat="43.48123" lon="6.68732">
        <ele>62.61311340332</ele>
        <time>2021-01-11T20:14:49.380Z</time>
      </trkpt>
      <trkpt lat="43.48118" lon="6.68743">
        <ele>62.54564285278</ele>
        <time>2021-01-11T20:15:11.161Z</time>
      </trkpt>
      <trkpt lat="43.48115" lon="6.6876">
        <ele>62.26594924927</ele>
        <time>2021-01-11T20:15:32.959Z</time>
      </trkpt>
      <trkpt lat="43.48108" lon="6.6878">
        <ele>62.60189437866</ele>
        <time>2021-01-11T20:15:54.779Z</time>
      </trkpt>
      <trkpt lat="43.48096" lon="6.68801">
        <ele>62.95555114746</ele>
        <time>2021-01-11T20:16:16.624Z</time>
      </trkpt>
      <trkpt lat="43.48087" lon="6.68816">
        <ele>62.74099731445</ele>
        <time>2021-01-11T20:16:38.488Z</time>
      </trkpt>
      <trkpt lat="43.48074" lon="6.68831">
        <ele>62.11497497559</ele>
        <time>2021-01-11T20:17:00.375Z</time>
      </trkpt>
      <trkpt lat="43.48064" lon="6.68838">
        <ele>61.70704269409</ele>
        <time>2021-01-11T20:17:22.277Z</time>
      </trkpt>
      <trkpt lat="43.48051" lon="6.68843">
        <ele>61.25791931152</ele>
        <time>2021-01-11T20:17:44.197Z</time>
      </trkpt>
      <trkpt lat="43.48047" lon="6.68845">
        <ele>61.11992645264</ele>
        <time>2021-01-11T20:18:06.123Z</time>
      </trkpt>
      <trkpt lat="43.48045" lon="6.68846">
        <ele>61.06856536865</ele>
        <time>2021-01-11T20:18:28.051Z</time>
      </trkpt>
      <trkpt lat="43.48044" lon="6.68846">
        <ele>61.0351524353</ele>
        <time>2021-01-11T20:18:49.981Z</time>
      </trkpt>
      <trkpt lat="43.48029" lon="6.68856">
        <ele>61.56474685669</ele>
        <time>2021-01-11T20:19:11.933Z</time>
      </trkpt>
      <trkpt lat="43.48022" lon="6.68868">
        <ele>62.02067184448</ele>
        <time>2021-01-11T20:19:33.900Z</time>
      </trkpt>
      <trkpt lat="43.48028" lon="6.68867">
        <ele>61.85564804077</ele>
        <time>2021-01-11T20:19:55.874Z</time>
      </trkpt>
      <trkpt lat="43.48032" lon="6.68866">
        <ele>61.73249816895</ele>
        <time>2021-01-11T20:20:17.854Z</time>
      </trkpt>
      <trkpt lat="43.48033" lon="6.68866">
        <ele>61.6866645813</ele>
        <time>2021-01-11T20:20:39.836Z</time>
      </trkpt>
      <trkpt lat="43.48036" lon="6.68865">
        <ele>61.61273956299</ele>
        <time>2021-01-11T20:21:01.822Z</time>
      </trkpt>
      <trkpt lat="43.48057" lon="6.68864">
        <ele>61.0848274231</ele>
        <time>2021-01-11T20:21:23.836Z</time>
      </trkpt>
      <trkpt lat="43.48087" lon="6.68867">
        <ele>61.5630645752</ele>
        <time>2021-01-11T20:21:45.890Z</time>
      </trkpt>
      <trkpt lat="43.48099" lon="6.68868">
        <ele>61.82702255249</ele>
        <time>2021-01-11T20:22:07.960Z</time>
      </trkpt>
      <trkpt lat="43.48112" lon="6.68865">
        <ele>61.32584762573</ele>
        <time>2021-01-11T20:22:30.047Z</time>
      </trkpt>
      <trkpt lat="43.48137" lon="6.68853">
        <ele>60.41400146484</ele>
        <time>2021-01-11T20:22:52.170Z</time>
      </trkpt>
      <trkpt lat="43.4815" lon="6.68846">
        <ele>59.95807647705</ele>
        <time>2021-01-11T20:23:14.311Z</time>
      </trkpt>
      <trkpt lat="43.48162" lon="6.68844">
        <ele>59.43016433716</ele>
        <time>2021-01-11T20:23:36.468Z</time>
      </trkpt>
      <trkpt lat="43.48177" lon="6.68847">
        <ele>58.63829421997</ele>
        <time>2021-01-11T20:23:58.646Z</time>
      </trkpt>
      <trkpt lat="43.48209" lon="6.68867">
        <ele>56.622631073</ele>
        <time>2021-01-11T20:24:20.871Z</time>
      </trkpt>
      <trkpt lat="43.48242" lon="6.68887">
        <ele>54.55897521973</ele>
        <time>2021-01-11T20:24:43.144Z</time>
      </trkpt>
      <trkpt lat="43.48263" lon="6.68903">
        <ele>53.16720581055</ele>
        <time>2021-01-11T20:25:05.449Z</time>
      </trkpt>
      <trkpt lat="43.48309" lon="6.68944">
        <ele>51.50911331177</ele>
        <time>2021-01-11T20:25:27.827Z</time>
      </trkpt>
      <trkpt lat="43.48363" lon="6.68983">
        <ele>49.28931045532</ele>
        <time>2021-01-11T20:25:50.286Z</time>
      </trkpt>
      <trkpt lat="43.48387" lon="6.69003">
        <ele>48.16068649292</ele>
        <time>2021-01-11T20:26:12.783Z</time>
      </trkpt>
      <trkpt lat="43.48405" lon="6.69028">
        <ele>47.68076705933</ele>
        <time>2021-01-11T20:26:35.314Z</time>
      </trkpt>
      <trkpt lat="43.48421" lon="6.69056">
        <ele>47.39281463623</ele>
        <time>2021-01-11T20:26:57.879Z</time>
      </trkpt>
      <trkpt lat="43.48427" lon="6.69074">
        <ele>46.85377502441</ele>
        <time>2021-01-11T20:27:20.463Z</time>
      </trkpt>
      <trkpt lat="43.4843" lon="6.69087">
        <ele>46.92576599121</ele>
        <time>2021-01-11T20:27:43.061Z</time>
      </trkpt>
      <trkpt lat="43.48432" lon="6.69113">
        <ele>46.97375488281</ele>
        <time>2021-01-11T20:28:05.684Z</time>
      </trkpt>
      <trkpt lat="43.48433" lon="6.69124">
        <ele>46.99775314331</ele>
        <time>2021-01-11T20:28:28.318Z</time>
      </trkpt>
      <trkpt lat="43.48435" lon="6.69131">
        <ele>47.11436080933</ele>
        <time>2021-01-11T20:28:50.959Z</time>
      </trkpt>
      <trkpt lat="43.48434" lon="6.69131">
        <ele>47.03620147705</ele>
        <time>2021-01-11T20:29:13.602Z</time>
      </trkpt>
      <trkpt lat="43.48429" lon="6.69132">
        <ele>46.9121131897</ele>
        <time>2021-01-11T20:29:36.251Z</time>
      </trkpt>
      <trkpt lat="43.48428" lon="6.69132">
        <ele>46.87401580811</ele>
        <time>2021-01-11T20:29:58.902Z</time>
      </trkpt>
      <trkpt lat="43.48425" lon="6.69132">
        <ele>46.80578613281</ele>
        <time>2021-01-11T20:30:21.557Z</time>
      </trkpt>
      <trkpt lat="43.48401" lon="6.69135">
        <ele>45.73020172119</ele>
        <time>2021-01-11T20:30:44.244Z</time>
      </trkpt>
      <trkpt lat="43.48388" lon="6.69135">
        <ele>44.9503326416</ele>
        <time>2021-01-11T20:31:06.948Z</time>
      </trkpt>
      <trkpt lat="43.4838" lon="6.69159">
        <ele>44.02326583862</ele>
        <time>2021-01-11T20:31:29.678Z</time>
      </trkpt>
      <trkpt lat="43.48371" lon="6.69177">
        <ele>44.16166305542</ele>
        <time>2021-01-11T20:31:52.429Z</time>
      </trkpt>
      <trkpt lat="43.48362" lon="6.69198">
        <ele>44.73756790161</ele>
        <time>2021-01-11T20:32:15.203Z</time>
      </trkpt>
      <trkpt lat="43.48353" lon="6.69225">
        <ele>45.6014251709</ele>
        <time>2021-01-11T20:32:38.006Z</time>
      </trkpt>
      <trkpt lat="43.48343" lon="6.69239">
        <ele>45.71244812012</ele>
        <time>2021-01-11T20:33:00.828Z</time>
      </trkpt>
      <trkpt lat="43.48329" lon="6.69255">
        <ele>45.64046096802</ele>
        <time>2021-01-11T20:33:23.675Z</time>
      </trkpt>
      <trkpt lat="43.48335" lon="6.69269">
        <ele>46.6722869873</ele>
        <time>2021-01-11T20:33:46.537Z</time>
      </trkpt>
      <trkpt lat="43.48341" lon="6.69282">
        <ele>47.65612411499</ele>
        <time>2021-01-11T20:34:09.414Z</time>
      </trkpt>
      <trkpt lat="43.48346" lon="6.69298">
        <ele>48.72394561768</ele>
        <time>2021-01-11T20:34:32.308Z</time>
      </trkpt>
      <trkpt lat="43.48348" lon="6.69311">
        <ele>49.46782302856</ele>
        <time>2021-01-11T20:34:55.215Z</time>
      </trkpt>
      <trkpt lat="43.48347" lon="6.69329">
        <ele>50.30464172363</ele>
        <time>2021-01-11T20:35:18.140Z</time>
      </trkpt>
      <trkpt lat="43.48336" lon="6.69364">
        <ele>51.45644760132</ele>
        <time>2021-01-11T20:35:41.102Z</time>
      </trkpt>
      <trkpt lat="43.48333" lon="6.69383">
        <ele>52.22431945801</ele>
        <time>2021-01-11T20:36:04.083Z</time>
      </trkpt>
      <trkpt lat="43.48337" lon="6.69449">
        <ele>54.24300765991</ele>
        <time>2021-01-11T20:36:27.128Z</time>
      </trkpt>
      <trkpt lat="43.48345" lon="6.69561">
        <ele>55.83570098877</ele>
        <time>2021-01-11T20:36:50.282Z</time>
      </trkpt>
      <trkpt lat="43.48357" lon="6.69619">
        <ele>57.61220550537</ele>
        <time>2021-01-11T20:37:13.495Z</time>
      </trkpt>
      <trkpt lat="43.48364" lon="6.69637">
        <ele>58.46406173706</ele>
        <time>2021-01-11T20:37:36.727Z</time>
      </trkpt>
      <trkpt lat="43.48374" lon="6.69663">
        <ele>59.22208404541</ele>
        <time>2021-01-11T20:37:59.988Z</time>
      </trkpt>
      <trkpt lat="43.48379" lon="6.69701">
        <ele>58.83156967163</ele>
        <time>2021-01-11T20:38:23.286Z</time>
      </trkpt>
      <trkpt lat="43.4838" lon="6.69723">
        <ele>58.61560440063</ele>
        <time>2021-01-11T20:38:46.606Z</time>
      </trkpt>
      <trkpt lat="43.48371" lon="6.69839">
        <ele>52.59072494507</ele>
        <time>2021-01-11T20:39:10.039Z</time>
      </trkpt>
      <trkpt lat="43.48356" lon="6.69989">
        <ele>49.169506073</ele>
        <time>2021-01-11T20:39:33.619Z</time>
      </trkpt>
      <trkpt lat="43.48354" lon="6.70006">
        <ele>48.67765426636</ele>
        <time>2021-01-11T20:39:57.216Z</time>
      </trkpt>
      <trkpt lat="43.48353" lon="6.70012">
        <ele>48.51070785522</ele>
        <time>2021-01-11T20:40:20.819Z</time>
      </trkpt>
      <trkpt lat="43.48353" lon="6.70014">
        <ele>48.44857025146</ele>
        <time>2021-01-11T20:40:44.424Z</time>
      </trkpt>
      <trkpt lat="43.48352" lon="6.70019">
        <ele>48.30565261841</ele>
        <time>2021-01-11T20:41:08.034Z</time>
      </trkpt>
      <trkpt lat="43.48339" lon="6.70057">
        <ele>47.44162368774</ele>
        <time>2021-01-11T20:41:31.684Z</time>
      </trkpt>
      <trkpt lat="43.48337" lon="6.70085">
        <ele>47</ele>
        <time>2021-01-11T20:41:55.361Z</time>
      </trkpt>
      <trkpt lat="43.48337" lon="6.7009">
        <ele>47</ele>
        <time>2021-01-11T20:42:19.044Z</time>
      </trkpt>
      <trkpt lat="43.48336" lon="6.70093">
        <ele>47</ele>
        <time>2021-01-11T20:42:42.729Z</time>
      </trkpt>
      <trkpt lat="43.48336" lon="6.70098">
        <ele>47</ele>
        <time>2021-01-11T20:43:06.419Z</time>
      </trkpt>
      <trkpt lat="43.48336" lon="6.70102">
        <ele>47</ele>
        <time>2021-01-11T20:43:30.113Z</time>
      </trkpt>
      <trkpt lat="43.48318" lon="6.70104">
        <ele>47</ele>
        <time>2021-01-11T20:43:53.831Z</time>
      </trkpt>
      <trkpt lat="43.48269" lon="6.70111">
        <ele>47</ele>
        <time>2021-01-11T20:44:17.615Z</time>
      </trkpt>
      <trkpt lat="43.48242" lon="6.70115">
        <ele>47.58548355103</ele>
        <time>2021-01-11T20:44:41.435Z</time>
      </trkpt>
      <trkpt lat="43.48204" lon="6.70111">
        <ele>48.73754501343</ele>
        <time>2021-01-11T20:45:05.306Z</time>
      </trkpt>
      <trkpt lat="43.48152" lon="6.70115">
        <ele>51.02978897095</ele>
        <time>2021-01-11T20:45:29.247Z</time>
      </trkpt>
      <trkpt lat="43.48113" lon="6.70121">
        <ele>51.16541671753</ele>
        <time>2021-01-11T20:45:53.240Z</time>
      </trkpt>
      <trkpt lat="43.48092" lon="6.70122">
        <ele>51.03697967529</ele>
        <time>2021-01-11T20:46:17.261Z</time>
      </trkpt>
      <trkpt lat="43.48064" lon="6.70121">
        <ele>50.65720367432</ele>
        <time>2021-01-11T20:46:41.319Z</time>
      </trkpt>
      <trkpt lat="43.48032" lon="6.70114">
        <ele>49.94728469849</ele>
        <time>2021-01-11T20:47:05.420Z</time>
      </trkpt>
      <trkpt lat="43.48028" lon="6.70113">
        <ele>49.85232162476</ele>
        <time>2021-01-11T20:47:29.527Z</time>
      </trkpt>
      <trkpt lat="43.48027" lon="6.70113">
        <ele>49.81697463989</ele>
        <time>2021-01-11T20:47:53.636Z</time>
      </trkpt>
      <trkpt lat="43.48024" lon="6.70112">
        <ele>49.75735092163</ele>
        <time>2021-01-11T20:48:17.748Z</time>
      </trkpt>
      <trkpt lat="43.47967" lon="6.7031">
        <ele>44.65321350098</ele>
        <time>2021-01-11T20:48:42.067Z</time>
      </trkpt>
      <trkpt lat="43.47966" lon="6.70315">
        <ele>44.50280761719</ele>
        <time>2021-01-11T20:49:06.392Z</time>
      </trkpt>
      <trkpt lat="43.47965" lon="6.70318">
        <ele>44.44682312012</ele>
        <time>2021-01-11T20:49:30.719Z</time>
      </trkpt>
      <trkpt lat="43.47964" lon="6.70321">
        <ele>44.3702507019</ele>
        <time>2021-01-11T20:49:55.049Z</time>
      </trkpt>
      <trkpt lat="43.47959" lon="6.70366">
        <ele>43.51110839844</ele>
        <time>2021-01-11T20:50:19.424Z</time>
      </trkpt>
      <trkpt lat="43.47958" lon="6.70372">
        <ele>43.35531234741</ele>
        <time>2021-01-11T20:50:43.805Z</time>
      </trkpt>
      <trkpt lat="43.47958" lon="6.70374">
        <ele>43.29732894897</ele>
        <time>2021-01-11T20:51:08.188Z</time>
      </trkpt>
      <trkpt lat="43.47958" lon="6.70378">
        <ele>43.20435714722</ele>
        <time>2021-01-11T20:51:32.574Z</time>
      </trkpt>
      <trkpt lat="43.4792" lon="6.70525">
        <ele>41.36337661743</ele>
        <time>2021-01-11T20:51:57.112Z</time>
      </trkpt>
      <trkpt lat="43.47919" lon="6.70531">
        <ele>41.01127243042</ele>
        <time>2021-01-11T20:52:21.656Z</time>
      </trkpt>
      <trkpt lat="43.47918" lon="6.70533">
        <ele>40.87948226929</ele>
        <time>2021-01-11T20:52:46.202Z</time>
      </trkpt>
      <trkpt lat="43.47917" lon="6.70536">
        <ele>40.68153762817</ele>
        <time>2021-01-11T20:53:10.751Z</time>
      </trkpt>
      <trkpt lat="43.47899" lon="6.70594">
        <ele>37.50520324707</ele>
        <time>2021-01-11T20:53:35.361Z</time>
      </trkpt>
      <trkpt lat="43.47898" lon="6.70599">
        <ele>37.07455062866</ele>
        <time>2021-01-11T20:53:59.976Z</time>
      </trkpt>
      <trkpt lat="43.47897" lon="6.70601">
        <ele>36.9133605957</ele>
        <time>2021-01-11T20:54:24.593Z</time>
      </trkpt>
      <trkpt lat="43.47896" lon="6.70604">
        <ele>36.65627288818</ele>
        <time>2021-01-11T20:54:49.214Z</time>
      </trkpt>
      <trkpt lat="43.47886" lon="6.70646">
        <ele>33.37446975708</ele>
        <time>2021-01-11T20:55:13.878Z</time>
      </trkpt>
      <trkpt lat="43.47884" lon="6.70652">
        <ele>32.93981552124</ele>
        <time>2021-01-11T20:55:38.548Z</time>
      </trkpt>
      <trkpt lat="43.47884" lon="6.70654">
        <ele>32.83282470703</ele>
        <time>2021-01-11T20:56:03.220Z</time>
      </trkpt>
      <trkpt lat="43.47883" lon="6.70657">
        <ele>32.89326095581</ele>
        <time>2021-01-11T20:56:27.895Z</time>
      </trkpt>
      <trkpt lat="43.47883" lon="6.70662">
        <ele>33.01707077026</ele>
        <time>2021-01-11T20:56:52.575Z</time>
      </trkpt>
      <trkpt lat="43.47883" lon="6.70668">
        <ele>33.16482543945</ele>
        <time>2021-01-11T20:57:17.261Z</time>
      </trkpt>
      <trkpt lat="43.47884" lon="6.7067">
        <ele>33.22013092041</ele>
        <time>2021-01-11T20:57:41.949Z</time>
      </trkpt>
      <trkpt lat="43.47884" lon="6.70674">
        <ele>33.31098937988</ele>
        <time>2021-01-11T20:58:06.641Z</time>
      </trkpt>
      <trkpt lat="43.47894" lon="6.70706">
        <ele>34.74012756348</ele>
        <time>2021-01-11T20:58:31.366Z</time>
      </trkpt>
      <trkpt lat="43.47895" lon="6.70712">
        <ele>35.09049987793</ele>
        <time>2021-01-11T20:58:56.097Z</time>
      </trkpt>
      <trkpt lat="43.47896" lon="6.70714">
        <ele>35.22164535522</ele>
        <time>2021-01-11T20:59:20.830Z</time>
      </trkpt>
      <trkpt lat="43.47897" lon="6.70717">
        <ele>35.43469238281</ele>
        <time>2021-01-11T20:59:45.567Z</time>
      </trkpt>
      <trkpt lat="43.47897" lon="6.70717">
        <ele>35.44348907471</ele>
        <time>2021-01-11T21:00:10.304Z</time>
      </trkpt>
      <trkpt lat="43.47901" lon="6.7072">
        <ele>35.52744293213</ele>
        <time>2021-01-11T21:00:35.047Z</time>
      </trkpt>
      <trkpt lat="43.47903" lon="6.70721">
        <ele>35.55886459351</ele>
        <time>2021-01-11T21:00:59.792Z</time>
      </trkpt>
      <trkpt lat="43.47946" lon="6.70748">
        <ele>36.67137145996</ele>
        <time>2021-01-11T21:01:24.601Z</time>
      </trkpt>
      <trkpt lat="43.47943" lon="6.70759">
        <ele>37.62405395508</ele>
        <time>2021-01-11T21:01:49.421Z</time>
      </trkpt>
      <trkpt lat="43.47945" lon="6.70774">
        <ele>38.83584976196</ele>
        <time>2021-01-11T21:02:14.256Z</time>
      </trkpt>
      <trkpt lat="43.47943" lon="6.70781">
        <ele>39.47174453735</ele>
        <time>2021-01-11T21:02:39.098Z</time>
      </trkpt>
      <trkpt lat="43.47936" lon="6.7079">
        <ele>40.39559173584</ele>
        <time>2021-01-11T21:03:03.953Z</time>
      </trkpt>
      <trkpt lat="43.47933" lon="6.70811">
        <ele>42.23128509521</ele>
        <time>2021-01-11T21:03:28.829Z</time>
      </trkpt>
      <trkpt lat="43.4793" lon="6.7083">
        <ele>43.97124481201</ele>
        <time>2021-01-11T21:03:53.724Z</time>
      </trkpt>
      <trkpt lat="43.47922" lon="6.70873">
        <ele>47.96657562256</ele>
        <time>2021-01-11T21:04:18.662Z</time>
      </trkpt>
      <trkpt lat="43.47921" lon="6.70907">
        <ele>50.39583587646</ele>
        <time>2021-01-11T21:04:43.633Z</time>
      </trkpt>
      <trkpt lat="43.47916" lon="6.70944">
        <ele>53.11938476562</ele>
        <time>2021-01-11T21:05:08.640Z</time>
      </trkpt>
      <trkpt lat="43.47912" lon="6.70984">
        <ele>55.82901000977</ele>
        <time>2021-01-11T21:05:33.687Z</time>
      </trkpt>
      <trkpt lat="43.47914" lon="6.70994">
        <ele>56.25734710693</ele>
        <time>2021-01-11T21:05:58.744Z</time>
      </trkpt>
      <trkpt lat="43.47912" lon="6.71014">
        <ele>56.97722625732</ele>
        <time>2021-01-11T21:06:23.820Z</time>
      </trkpt>
      <trkpt lat="43.47916" lon="6.71039">
        <ele>57.87707519531</ele>
        <time>2021-01-11T21:06:48.921Z</time>
      </trkpt>
      <trkpt lat="43.47916" lon="6.71069">
        <ele>59.52606201172</ele>
        <time>2021-01-11T21:07:14.051Z</time>
      </trkpt>
      <trkpt lat="43.47928" lon="6.71109">
        <ele>61.042552948</ele>
        <time>2021-01-11T21:07:39.223Z</time>
      </trkpt>
      <trkpt lat="43.4793" lon="6.71133">
        <ele>62.12237167358</ele>
        <time>2021-01-11T21:08:04.419Z</time>
      </trkpt>
      <trkpt lat="43.47926" lon="6.7116">
        <ele>63.31645965576</ele>
        <time>2021-01-11T21:08:29.641Z</time>
      </trkpt>
      <trkpt lat="43.47924" lon="6.71176">
        <ele>63.91636276245</ele>
        <time>2021-01-11T21:08:54.879Z</time>
      </trkpt>
      <trkpt lat="43.47923" lon="6.71184">
        <ele>64.22201538086</ele>
        <time>2021-01-11T21:09:20.125Z</time>
      </trkpt>
      <trkpt lat="43.47922" lon="6.7119">
        <ele>64.44019317627</ele>
        <time>2021-01-11T21:09:45.377Z</time>
      </trkpt>
      <trkpt lat="43.47922" lon="6.71192">
        <ele>64.52185058594</ele>
        <time>2021-01-11T21:10:10.631Z</time>
      </trkpt>
      <trkpt lat="43.47919" lon="6.71209">
        <ele>65.16415405273</ele>
        <time>2021-01-11T21:10:35.902Z</time>
      </trkpt>
      <trkpt lat="43.47916" lon="6.71258">
        <ele>64.9303894043</ele>
        <time>2021-01-11T21:11:01.221Z</time>
      </trkpt>
      <trkpt lat="43.47911" lon="6.7125">
        <ele>64.7864074707</ele>
        <time>2021-01-11T21:11:26.550Z</time>
      </trkpt>
      <trkpt lat="43.4789" lon="6.71227">
        <ele>64.17321777344</ele>
        <time>2021-01-11T21:11:51.915Z</time>
      </trkpt>
      <trkpt lat="43.47862" lon="6.71204">
        <ele>63.38134765625</ele>
        <time>2021-01-11T21:12:17.323Z</time>
      </trkpt>
      <trkpt lat="43.47853" lon="6.71194">
        <ele>63.19427108765</ele>
        <time>2021-01-11T21:12:42.747Z</time>
      </trkpt>
      <trkpt lat="43.4785" lon="6.7119">
        <ele>63.12575912476</ele>
        <time>2021-01-11T21:13:08.177Z</time>
      </trkpt>
      <trkpt lat="43.47848" lon="6.71189">
        <ele>63.15840148926</ele>
        <time>2021-01-11T21:13:33.609Z</time>
      </trkpt>
      <trkpt lat="43.47825" lon="6.71162">
        <ele>63.79710769653</ele>
        <time>2021-01-11T21:13:59.081Z</time>
      </trkpt>
      <trkpt lat="43.47819" lon="6.71149">
        <ele>63.89094543457</ele>
        <time>2021-01-11T21:14:24.568Z</time>
      </trkpt>
      <trkpt lat="43.47815" lon="6.71146">
        <ele>63.81895828247</ele>
        <time>2021-01-11T21:14:50.061Z</time>
      </trkpt>
      <trkpt lat="43.4781" lon="6.71147">
        <ele>63.84295272827</ele>
        <time>2021-01-11T21:15:15.561Z</time>
      </trkpt>
      <trkpt lat="43.47808" lon="6.71141">
        <ele>63.69897842407</ele>
        <time>2021-01-11T21:15:41.067Z</time>
      </trkpt>
      <trkpt lat="43.4781" lon="6.71147">
        <ele>63.84295272827</ele>
        <time>2021-01-11T21:16:06.580Z</time>
      </trkpt>
      <trkpt lat="43.47797" lon="6.71161">
        <ele>63.82110214233</ele>
        <time>2021-01-11T21:16:32.115Z</time>
      </trkpt>
      <trkpt lat="43.47781" lon="6.71189">
        <ele>63.14921569824</ele>
        <time>2021-01-11T21:16:57.684Z</time>
      </trkpt>
      <trkpt lat="43.47775" lon="6.71203">
        <ele>62.81859970093</ele>
        <time>2021-01-11T21:17:23.269Z</time>
      </trkpt>
      <trkpt lat="43.47773" lon="6.71208">
        <ele>62.69473266602</ele>
        <time>2021-01-11T21:17:48.859Z</time>
      </trkpt>
      <trkpt lat="43.47773" lon="6.71209">
        <ele>62.66310501099</ele>
        <time>2021-01-11T21:18:14.451Z</time>
      </trkpt>
    </trkseg>
  </trk>
</gpx>